<?xml version="1.0" encoding="UTF-8" standalone="no" ?>
<gpx xmlns="http://www.topografix.com/GPX/1/1" xmlns:xsi="http://www.w3.org/2001/XMLSchema-instance" xsi:schemaLocation="http://www.topografix.com/GPX/1/1 http://www.topografix.com/GPX/1/1/gpx.xsd" version="1.1" creator="VisuGPX - https://www.visugpx.com">
  <metadata>
    <name>Charmant Som</name>
    <desc><![CDATA[Trace AlpineQuest 10/01/2021 14:47:01]]></desc>
  </metadata>
  <trk>
    <name><![CDATA[Charmant Som_1]]></name>
    <trkseg>
      <trkpt lat="45.29733" lon="5.75834">
        <ele>1324.032</ele>
        <time>2021-01-10T13:47:01Z</time>
      </trkpt>
      <trkpt lat="45.29741" lon="5.75844">
        <ele>1325.796</ele>
        <time>2021-01-10T13:47:06Z</time>
      </trkpt>
      <trkpt lat="45.29747" lon="5.75848">
        <ele>1326.376</ele>
        <time>2021-01-10T13:47:11Z</time>
      </trkpt>
      <trkpt lat="45.29753" lon="5.75853">
        <ele>1325.075</ele>
        <time>2021-01-10T13:47:38Z</time>
      </trkpt>
      <trkpt lat="45.2976" lon="5.75849">
        <ele>1326.452</ele>
        <time>2021-01-10T13:47:43Z</time>
      </trkpt>
      <trkpt lat="45.29763" lon="5.7584">
        <ele>1327.995</ele>
        <time>2021-01-10T13:47:48Z</time>
      </trkpt>
      <trkpt lat="45.29765" lon="5.75827">
        <ele>1328.119</ele>
        <time>2021-01-10T13:47:53Z</time>
      </trkpt>
      <trkpt lat="45.29761" lon="5.75818">
        <ele>1328.174</ele>
        <time>2021-01-10T13:48:02Z</time>
      </trkpt>
      <trkpt lat="45.2976" lon="5.75806">
        <ele>1327.764</ele>
        <time>2021-01-10T13:48:07Z</time>
      </trkpt>
      <trkpt lat="45.29758" lon="5.75792">
        <ele>1329.121</ele>
        <time>2021-01-10T13:48:12Z</time>
      </trkpt>
      <trkpt lat="45.29756" lon="5.75778">
        <ele>1330.487</ele>
        <time>2021-01-10T13:48:17Z</time>
      </trkpt>
      <trkpt lat="45.29754" lon="5.75764">
        <ele>1331.756</ele>
        <time>2021-01-10T13:48:22Z</time>
      </trkpt>
      <trkpt lat="45.29753" lon="5.7575">
        <ele>1332.268</ele>
        <time>2021-01-10T13:48:27Z</time>
      </trkpt>
      <trkpt lat="45.29753" lon="5.75734">
        <ele>1332.378</ele>
        <time>2021-01-10T13:48:32Z</time>
      </trkpt>
      <trkpt lat="45.29752" lon="5.75718">
        <ele>1331.129</ele>
        <time>2021-01-10T13:48:37Z</time>
      </trkpt>
      <trkpt lat="45.2975" lon="5.75702">
        <ele>1332.216</ele>
        <time>2021-01-10T13:48:42Z</time>
      </trkpt>
      <trkpt lat="45.29749" lon="5.75688">
        <ele>1333.473</ele>
        <time>2021-01-10T13:48:47Z</time>
      </trkpt>
      <trkpt lat="45.29748" lon="5.75672">
        <ele>1335.371</ele>
        <time>2021-01-10T13:48:52Z</time>
      </trkpt>
      <trkpt lat="45.29748" lon="5.75656">
        <ele>1335.708</ele>
        <time>2021-01-10T13:48:57Z</time>
      </trkpt>
      <trkpt lat="45.29748" lon="5.75641">
        <ele>1335.921</ele>
        <time>2021-01-10T13:49:02Z</time>
      </trkpt>
      <trkpt lat="45.29751" lon="5.75628">
        <ele>1337.416</ele>
        <time>2021-01-10T13:49:07Z</time>
      </trkpt>
      <trkpt lat="45.29756" lon="5.75616">
        <ele>1339.042</ele>
        <time>2021-01-10T13:49:12Z</time>
      </trkpt>
      <trkpt lat="45.29761" lon="5.75605">
        <ele>1341.24</ele>
        <time>2021-01-10T13:49:17Z</time>
      </trkpt>
      <trkpt lat="45.29767" lon="5.75595">
        <ele>1341.743</ele>
        <time>2021-01-10T13:49:22Z</time>
      </trkpt>
      <trkpt lat="45.29775" lon="5.75587">
        <ele>1341.257</ele>
        <time>2021-01-10T13:49:27Z</time>
      </trkpt>
      <trkpt lat="45.29781" lon="5.75581">
        <ele>1340.982</ele>
        <time>2021-01-10T13:49:32Z</time>
      </trkpt>
      <trkpt lat="45.29789" lon="5.75575">
        <ele>1340.871</ele>
        <time>2021-01-10T13:49:37Z</time>
      </trkpt>
      <trkpt lat="45.29796" lon="5.75569">
        <ele>1341.867</ele>
        <time>2021-01-10T13:49:42Z</time>
      </trkpt>
      <trkpt lat="45.29802" lon="5.75561">
        <ele>1344.135</ele>
        <time>2021-01-10T13:49:47Z</time>
      </trkpt>
      <trkpt lat="45.29808" lon="5.75554">
        <ele>1346.686</ele>
        <time>2021-01-10T13:49:52Z</time>
      </trkpt>
      <trkpt lat="45.29813" lon="5.75544">
        <ele>1348.569</ele>
        <time>2021-01-10T13:49:57Z</time>
      </trkpt>
      <trkpt lat="45.29816" lon="5.75532">
        <ele>1350.921</ele>
        <time>2021-01-10T13:50:02Z</time>
      </trkpt>
      <trkpt lat="45.29816" lon="5.7552">
        <ele>1352.637</ele>
        <time>2021-01-10T13:50:07Z</time>
      </trkpt>
      <trkpt lat="45.29815" lon="5.75508">
        <ele>1353.552</ele>
        <time>2021-01-10T13:50:12Z</time>
      </trkpt>
      <trkpt lat="45.29815" lon="5.75497">
        <ele>1352.67</ele>
        <time>2021-01-10T13:50:17Z</time>
      </trkpt>
      <trkpt lat="45.29814" lon="5.75486">
        <ele>1353.938</ele>
        <time>2021-01-10T13:50:22Z</time>
      </trkpt>
      <trkpt lat="45.29813" lon="5.75475">
        <ele>1354.594</ele>
        <time>2021-01-10T13:50:27Z</time>
      </trkpt>
      <trkpt lat="45.29811" lon="5.75464">
        <ele>1355.389</ele>
        <time>2021-01-10T13:50:32Z</time>
      </trkpt>
      <trkpt lat="45.29809" lon="5.75454">
        <ele>1356.632</ele>
        <time>2021-01-10T13:50:37Z</time>
      </trkpt>
      <trkpt lat="45.29807" lon="5.75445">
        <ele>1358.356</ele>
        <time>2021-01-10T13:50:42Z</time>
      </trkpt>
      <trkpt lat="45.29804" lon="5.75434">
        <ele>1358.645</ele>
        <time>2021-01-10T13:50:47Z</time>
      </trkpt>
      <trkpt lat="45.29802" lon="5.75423">
        <ele>1358.865</ele>
        <time>2021-01-10T13:50:52Z</time>
      </trkpt>
      <trkpt lat="45.29801" lon="5.75413">
        <ele>1359.135</ele>
        <time>2021-01-10T13:50:57Z</time>
      </trkpt>
      <trkpt lat="45.298" lon="5.75403">
        <ele>1358.757</ele>
        <time>2021-01-10T13:51:02Z</time>
      </trkpt>
      <trkpt lat="45.29798" lon="5.75392">
        <ele>1360.295</ele>
        <time>2021-01-10T13:51:07Z</time>
      </trkpt>
      <trkpt lat="45.29797" lon="5.75382">
        <ele>1361.487</ele>
        <time>2021-01-10T13:51:12Z</time>
      </trkpt>
      <trkpt lat="45.29797" lon="5.75372">
        <ele>1362.622</ele>
        <time>2021-01-10T13:51:17Z</time>
      </trkpt>
      <trkpt lat="45.29797" lon="5.7536">
        <ele>1363.155</ele>
        <time>2021-01-10T13:51:22Z</time>
      </trkpt>
      <trkpt lat="45.29796" lon="5.75349">
        <ele>1364.941</ele>
        <time>2021-01-10T13:51:27Z</time>
      </trkpt>
      <trkpt lat="45.29795" lon="5.75334">
        <ele>1364.845</ele>
        <time>2021-01-10T13:51:32Z</time>
      </trkpt>
      <trkpt lat="45.29795" lon="5.75323">
        <ele>1365.672</ele>
        <time>2021-01-10T13:51:37Z</time>
      </trkpt>
      <trkpt lat="45.29794" lon="5.75312">
        <ele>1365.517</ele>
        <time>2021-01-10T13:51:42Z</time>
      </trkpt>
      <trkpt lat="45.29794" lon="5.75299">
        <ele>1366.268</ele>
        <time>2021-01-10T13:51:47Z</time>
      </trkpt>
      <trkpt lat="45.29793" lon="5.75287">
        <ele>1367.058</ele>
        <time>2021-01-10T13:51:52Z</time>
      </trkpt>
      <trkpt lat="45.29795" lon="5.75275">
        <ele>1367.591</ele>
        <time>2021-01-10T13:51:57Z</time>
      </trkpt>
      <trkpt lat="45.29798" lon="5.75263">
        <ele>1369.015</ele>
        <time>2021-01-10T13:52:02Z</time>
      </trkpt>
      <trkpt lat="45.29801" lon="5.75252">
        <ele>1371.02</ele>
        <time>2021-01-10T13:52:07Z</time>
      </trkpt>
      <trkpt lat="45.29805" lon="5.75243">
        <ele>1371.912</ele>
        <time>2021-01-10T13:52:12Z</time>
      </trkpt>
      <trkpt lat="45.2981" lon="5.75234">
        <ele>1372.89</ele>
        <time>2021-01-10T13:52:17Z</time>
      </trkpt>
      <trkpt lat="45.29819" lon="5.75229">
        <ele>1372.927</ele>
        <time>2021-01-10T13:52:22Z</time>
      </trkpt>
      <trkpt lat="45.29827" lon="5.75227">
        <ele>1373.149</ele>
        <time>2021-01-10T13:52:27Z</time>
      </trkpt>
      <trkpt lat="45.29837" lon="5.75225">
        <ele>1373.6</ele>
        <time>2021-01-10T13:52:32Z</time>
      </trkpt>
      <trkpt lat="45.29846" lon="5.75225">
        <ele>1375.873</ele>
        <time>2021-01-10T13:52:37Z</time>
      </trkpt>
      <trkpt lat="45.29854" lon="5.7523">
        <ele>1376.77</ele>
        <time>2021-01-10T13:52:42Z</time>
      </trkpt>
      <trkpt lat="45.29863" lon="5.75239">
        <ele>1372.946</ele>
        <time>2021-01-10T13:52:47Z</time>
      </trkpt>
      <trkpt lat="45.29877" lon="5.75241">
        <ele>1373.636</ele>
        <time>2021-01-10T13:52:52Z</time>
      </trkpt>
      <trkpt lat="45.29888" lon="5.75242">
        <ele>1372.955</ele>
        <time>2021-01-10T13:52:57Z</time>
      </trkpt>
      <trkpt lat="45.29896" lon="5.75235">
        <ele>1376.666</ele>
        <time>2021-01-10T13:53:02Z</time>
      </trkpt>
      <trkpt lat="45.29906" lon="5.75227">
        <ele>1377.639</ele>
        <time>2021-01-10T13:53:07Z</time>
      </trkpt>
      <trkpt lat="45.29915" lon="5.75219">
        <ele>1379.167</ele>
        <time>2021-01-10T13:53:12Z</time>
      </trkpt>
      <trkpt lat="45.29922" lon="5.75211">
        <ele>1381.274</ele>
        <time>2021-01-10T13:53:17Z</time>
      </trkpt>
      <trkpt lat="45.29931" lon="5.75205">
        <ele>1381.74</ele>
        <time>2021-01-10T13:53:22Z</time>
      </trkpt>
      <trkpt lat="45.29941" lon="5.75205">
        <ele>1382.202</ele>
        <time>2021-01-10T13:53:27Z</time>
      </trkpt>
      <trkpt lat="45.2995" lon="5.75215">
        <ele>1381.82</ele>
        <time>2021-01-10T13:53:32Z</time>
      </trkpt>
      <trkpt lat="45.29957" lon="5.75227">
        <ele>1381.961</ele>
        <time>2021-01-10T13:53:37Z</time>
      </trkpt>
      <trkpt lat="45.29963" lon="5.7524">
        <ele>1382.556</ele>
        <time>2021-01-10T13:53:42Z</time>
      </trkpt>
      <trkpt lat="45.29967" lon="5.75252">
        <ele>1384.177</ele>
        <time>2021-01-10T13:53:47Z</time>
      </trkpt>
      <trkpt lat="45.29971" lon="5.75263">
        <ele>1385.16</ele>
        <time>2021-01-10T13:53:52Z</time>
      </trkpt>
      <trkpt lat="45.29975" lon="5.75273">
        <ele>1385.922</ele>
        <time>2021-01-10T13:53:57Z</time>
      </trkpt>
      <trkpt lat="45.29979" lon="5.75285">
        <ele>1387.216</ele>
        <time>2021-01-10T13:54:02Z</time>
      </trkpt>
      <trkpt lat="45.29986" lon="5.75296">
        <ele>1388.7</ele>
        <time>2021-01-10T13:54:07Z</time>
      </trkpt>
      <trkpt lat="45.29993" lon="5.75301">
        <ele>1388.733</ele>
        <time>2021-01-10T13:54:12Z</time>
      </trkpt>
      <trkpt lat="45.29997" lon="5.7531">
        <ele>1391.93</ele>
        <time>2021-01-10T13:54:20Z</time>
      </trkpt>
      <trkpt lat="45.30005" lon="5.75316">
        <ele>1392.24</ele>
        <time>2021-01-10T13:54:25Z</time>
      </trkpt>
      <trkpt lat="45.30012" lon="5.75321">
        <ele>1391.523</ele>
        <time>2021-01-10T13:54:30Z</time>
      </trkpt>
      <trkpt lat="45.30019" lon="5.75328">
        <ele>1393.883</ele>
        <time>2021-01-10T13:54:35Z</time>
      </trkpt>
      <trkpt lat="45.30026" lon="5.75334">
        <ele>1394.755</ele>
        <time>2021-01-10T13:54:40Z</time>
      </trkpt>
      <trkpt lat="45.30032" lon="5.75343">
        <ele>1395.918</ele>
        <time>2021-01-10T13:54:45Z</time>
      </trkpt>
      <trkpt lat="45.30039" lon="5.75352">
        <ele>1396.663</ele>
        <time>2021-01-10T13:54:50Z</time>
      </trkpt>
      <trkpt lat="45.30047" lon="5.7536">
        <ele>1398.131</ele>
        <time>2021-01-10T13:54:55Z</time>
      </trkpt>
      <trkpt lat="45.30053" lon="5.75371">
        <ele>1400.154</ele>
        <time>2021-01-10T13:55:00Z</time>
      </trkpt>
      <trkpt lat="45.30059" lon="5.75382">
        <ele>1400.85</ele>
        <time>2021-01-10T13:55:05Z</time>
      </trkpt>
      <trkpt lat="45.30064" lon="5.75392">
        <ele>1402.256</ele>
        <time>2021-01-10T13:55:10Z</time>
      </trkpt>
      <trkpt lat="45.3007" lon="5.75401">
        <ele>1403.905</ele>
        <time>2021-01-10T13:55:15Z</time>
      </trkpt>
      <trkpt lat="45.30076" lon="5.75409">
        <ele>1404.975</ele>
        <time>2021-01-10T13:55:20Z</time>
      </trkpt>
      <trkpt lat="45.30082" lon="5.75415">
        <ele>1405.413</ele>
        <time>2021-01-10T13:55:25Z</time>
      </trkpt>
      <trkpt lat="45.30088" lon="5.75423">
        <ele>1406.682</ele>
        <time>2021-01-10T13:55:30Z</time>
      </trkpt>
      <trkpt lat="45.30094" lon="5.7543">
        <ele>1407.69</ele>
        <time>2021-01-10T13:55:35Z</time>
      </trkpt>
      <trkpt lat="45.30099" lon="5.75436">
        <ele>1408.593</ele>
        <time>2021-01-10T13:55:40Z</time>
      </trkpt>
      <trkpt lat="45.30105" lon="5.75446">
        <ele>1409.353</ele>
        <time>2021-01-10T13:55:45Z</time>
      </trkpt>
      <trkpt lat="45.30109" lon="5.75457">
        <ele>1409.283</ele>
        <time>2021-01-10T13:55:50Z</time>
      </trkpt>
      <trkpt lat="45.30114" lon="5.75466">
        <ele>1410.977</ele>
        <time>2021-01-10T13:55:55Z</time>
      </trkpt>
      <trkpt lat="45.30118" lon="5.75473">
        <ele>1411.213</ele>
        <time>2021-01-10T13:56:00Z</time>
      </trkpt>
      <trkpt lat="45.30124" lon="5.7548">
        <ele>1409.852</ele>
        <time>2021-01-10T13:56:05Z</time>
      </trkpt>
      <trkpt lat="45.3013" lon="5.75487">
        <ele>1409.79</ele>
        <time>2021-01-10T13:56:10Z</time>
      </trkpt>
      <trkpt lat="45.30137" lon="5.75495">
        <ele>1410.271</ele>
        <time>2021-01-10T13:56:15Z</time>
      </trkpt>
      <trkpt lat="45.30144" lon="5.755">
        <ele>1411.531</ele>
        <time>2021-01-10T13:56:20Z</time>
      </trkpt>
      <trkpt lat="45.30151" lon="5.75505">
        <ele>1412.349</ele>
        <time>2021-01-10T13:56:25Z</time>
      </trkpt>
      <trkpt lat="45.30158" lon="5.75509">
        <ele>1412.35</ele>
        <time>2021-01-10T13:56:30Z</time>
      </trkpt>
      <trkpt lat="45.30164" lon="5.75513">
        <ele>1413.208</ele>
        <time>2021-01-10T13:56:35Z</time>
      </trkpt>
      <trkpt lat="45.30171" lon="5.75517">
        <ele>1414.218</ele>
        <time>2021-01-10T13:56:40Z</time>
      </trkpt>
      <trkpt lat="45.30177" lon="5.75523">
        <ele>1415.027</ele>
        <time>2021-01-10T13:56:45Z</time>
      </trkpt>
      <trkpt lat="45.30184" lon="5.75528">
        <ele>1416.825</ele>
        <time>2021-01-10T13:56:50Z</time>
      </trkpt>
      <trkpt lat="45.3019" lon="5.75533">
        <ele>1417.984</ele>
        <time>2021-01-10T13:56:55Z</time>
      </trkpt>
      <trkpt lat="45.30196" lon="5.75539">
        <ele>1419.288</ele>
        <time>2021-01-10T13:57:00Z</time>
      </trkpt>
      <trkpt lat="45.30202" lon="5.75545">
        <ele>1420.88</ele>
        <time>2021-01-10T13:57:05Z</time>
      </trkpt>
      <trkpt lat="45.30208" lon="5.75551">
        <ele>1421.53</ele>
        <time>2021-01-10T13:57:10Z</time>
      </trkpt>
      <trkpt lat="45.30214" lon="5.75557">
        <ele>1422.177</ele>
        <time>2021-01-10T13:57:15Z</time>
      </trkpt>
      <trkpt lat="45.3022" lon="5.75562">
        <ele>1422.314</ele>
        <time>2021-01-10T13:57:20Z</time>
      </trkpt>
      <trkpt lat="45.30226" lon="5.75567">
        <ele>1422.652</ele>
        <time>2021-01-10T13:57:25Z</time>
      </trkpt>
      <trkpt lat="45.30231" lon="5.75575">
        <ele>1423.309</ele>
        <time>2021-01-10T13:57:30Z</time>
      </trkpt>
      <trkpt lat="45.30237" lon="5.75581">
        <ele>1423.183</ele>
        <time>2021-01-10T13:57:35Z</time>
      </trkpt>
      <trkpt lat="45.30242" lon="5.75589">
        <ele>1423.821</ele>
        <time>2021-01-10T13:57:40Z</time>
      </trkpt>
      <trkpt lat="45.30246" lon="5.75598">
        <ele>1424.951</ele>
        <time>2021-01-10T13:57:45Z</time>
      </trkpt>
      <trkpt lat="45.30251" lon="5.75607">
        <ele>1426.818</ele>
        <time>2021-01-10T13:57:50Z</time>
      </trkpt>
      <trkpt lat="45.30255" lon="5.75615">
        <ele>1427.439</ele>
        <time>2021-01-10T13:57:55Z</time>
      </trkpt>
      <trkpt lat="45.30259" lon="5.75624">
        <ele>1428.767</ele>
        <time>2021-01-10T13:58:00Z</time>
      </trkpt>
      <trkpt lat="45.30263" lon="5.75634">
        <ele>1429.035</ele>
        <time>2021-01-10T13:58:05Z</time>
      </trkpt>
      <trkpt lat="45.30268" lon="5.75641">
        <ele>1429.539</ele>
        <time>2021-01-10T13:58:10Z</time>
      </trkpt>
      <trkpt lat="45.30275" lon="5.75646">
        <ele>1430.521</ele>
        <time>2021-01-10T13:58:16Z</time>
      </trkpt>
      <trkpt lat="45.30282" lon="5.75649">
        <ele>1430.959</ele>
        <time>2021-01-10T13:58:21Z</time>
      </trkpt>
      <trkpt lat="45.30289" lon="5.75651">
        <ele>1431.682</ele>
        <time>2021-01-10T13:58:27Z</time>
      </trkpt>
      <trkpt lat="45.30296" lon="5.75652">
        <ele>1432.531</ele>
        <time>2021-01-10T13:58:32Z</time>
      </trkpt>
      <trkpt lat="45.30303" lon="5.75654">
        <ele>1434.078</ele>
        <time>2021-01-10T13:58:37Z</time>
      </trkpt>
      <trkpt lat="45.3031" lon="5.75656">
        <ele>1435.017</ele>
        <time>2021-01-10T13:58:42Z</time>
      </trkpt>
      <trkpt lat="45.30317" lon="5.75659">
        <ele>1435.981</ele>
        <time>2021-01-10T13:58:47Z</time>
      </trkpt>
      <trkpt lat="45.30324" lon="5.75661">
        <ele>1436.898</ele>
        <time>2021-01-10T13:58:52Z</time>
      </trkpt>
      <trkpt lat="45.3033" lon="5.75663">
        <ele>1438.114</ele>
        <time>2021-01-10T13:58:57Z</time>
      </trkpt>
      <trkpt lat="45.30338" lon="5.75665">
        <ele>1439.537</ele>
        <time>2021-01-10T13:59:03Z</time>
      </trkpt>
      <trkpt lat="45.30344" lon="5.75668">
        <ele>1441.147</ele>
        <time>2021-01-10T13:59:08Z</time>
      </trkpt>
      <trkpt lat="45.30352" lon="5.7567">
        <ele>1441.357</ele>
        <time>2021-01-10T13:59:13Z</time>
      </trkpt>
      <trkpt lat="45.30359" lon="5.75673">
        <ele>1441.779</ele>
        <time>2021-01-10T13:59:18Z</time>
      </trkpt>
      <trkpt lat="45.30366" lon="5.75675">
        <ele>1441.032</ele>
        <time>2021-01-10T13:59:24Z</time>
      </trkpt>
      <trkpt lat="45.30374" lon="5.75677">
        <ele>1443.115</ele>
        <time>2021-01-10T13:59:30Z</time>
      </trkpt>
      <trkpt lat="45.3038" lon="5.75677">
        <ele>1445.383</ele>
        <time>2021-01-10T13:59:36Z</time>
      </trkpt>
      <trkpt lat="45.30387" lon="5.75681">
        <ele>1446.039</ele>
        <time>2021-01-10T13:59:41Z</time>
      </trkpt>
      <trkpt lat="45.30393" lon="5.75683">
        <ele>1447.29</ele>
        <time>2021-01-10T13:59:46Z</time>
      </trkpt>
      <trkpt lat="45.30399" lon="5.75685">
        <ele>1448.063</ele>
        <time>2021-01-10T13:59:51Z</time>
      </trkpt>
      <trkpt lat="45.30406" lon="5.75686">
        <ele>1447.096</ele>
        <time>2021-01-10T13:59:56Z</time>
      </trkpt>
      <trkpt lat="45.30414" lon="5.75686">
        <ele>1449</ele>
        <time>2021-01-10T14:00:03Z</time>
      </trkpt>
      <trkpt lat="45.3042" lon="5.75682">
        <ele>1450.655</ele>
        <time>2021-01-10T14:00:09Z</time>
      </trkpt>
      <trkpt lat="45.30425" lon="5.75675">
        <ele>1451.054</ele>
        <time>2021-01-10T14:00:15Z</time>
      </trkpt>
      <trkpt lat="45.30429" lon="5.75667">
        <ele>1452.74</ele>
        <time>2021-01-10T14:00:20Z</time>
      </trkpt>
      <trkpt lat="45.30432" lon="5.75657">
        <ele>1452.38</ele>
        <time>2021-01-10T14:00:26Z</time>
      </trkpt>
      <trkpt lat="45.30434" lon="5.75647">
        <ele>1453.351</ele>
        <time>2021-01-10T14:00:32Z</time>
      </trkpt>
      <trkpt lat="45.30436" lon="5.75638">
        <ele>1453.625</ele>
        <time>2021-01-10T14:00:38Z</time>
      </trkpt>
      <trkpt lat="45.30437" lon="5.75628">
        <ele>1455.169</ele>
        <time>2021-01-10T14:00:44Z</time>
      </trkpt>
      <trkpt lat="45.30437" lon="5.75618">
        <ele>1456.412</ele>
        <time>2021-01-10T14:00:50Z</time>
      </trkpt>
      <trkpt lat="45.30435" lon="5.75609">
        <ele>1458.119</ele>
        <time>2021-01-10T14:00:55Z</time>
      </trkpt>
      <trkpt lat="45.30435" lon="5.75599">
        <ele>1458.246</ele>
        <time>2021-01-10T14:01:00Z</time>
      </trkpt>
      <trkpt lat="45.30434" lon="5.75589">
        <ele>1458.848</ele>
        <time>2021-01-10T14:01:05Z</time>
      </trkpt>
      <trkpt lat="45.30435" lon="5.75579">
        <ele>1459.584</ele>
        <time>2021-01-10T14:01:11Z</time>
      </trkpt>
      <trkpt lat="45.30434" lon="5.75569">
        <ele>1459.347</ele>
        <time>2021-01-10T14:01:17Z</time>
      </trkpt>
      <trkpt lat="45.30434" lon="5.7556">
        <ele>1459.304</ele>
        <time>2021-01-10T14:01:22Z</time>
      </trkpt>
      <trkpt lat="45.30433" lon="5.75549">
        <ele>1460.426</ele>
        <time>2021-01-10T14:01:28Z</time>
      </trkpt>
      <trkpt lat="45.30431" lon="5.75539">
        <ele>1460.65</ele>
        <time>2021-01-10T14:01:35Z</time>
      </trkpt>
      <trkpt lat="45.30432" lon="5.75529">
        <ele>1460.291</ele>
        <time>2021-01-10T14:01:40Z</time>
      </trkpt>
      <trkpt lat="45.30432" lon="5.7552">
        <ele>1462.254</ele>
        <time>2021-01-10T14:01:45Z</time>
      </trkpt>
      <trkpt lat="45.30432" lon="5.7551">
        <ele>1463.897</ele>
        <time>2021-01-10T14:01:50Z</time>
      </trkpt>
      <trkpt lat="45.30432" lon="5.75501">
        <ele>1463.829</ele>
        <time>2021-01-10T14:01:55Z</time>
      </trkpt>
      <trkpt lat="45.30432" lon="5.75491">
        <ele>1465.456</ele>
        <time>2021-01-10T14:02:00Z</time>
      </trkpt>
      <trkpt lat="45.30431" lon="5.7548">
        <ele>1465.786</ele>
        <time>2021-01-10T14:02:06Z</time>
      </trkpt>
      <trkpt lat="45.3043" lon="5.7547">
        <ele>1466.032</ele>
        <time>2021-01-10T14:02:11Z</time>
      </trkpt>
      <trkpt lat="45.3043" lon="5.75461">
        <ele>1467.873</ele>
        <time>2021-01-10T14:02:16Z</time>
      </trkpt>
      <trkpt lat="45.30428" lon="5.75451">
        <ele>1469.209</ele>
        <time>2021-01-10T14:02:21Z</time>
      </trkpt>
      <trkpt lat="45.30428" lon="5.7544">
        <ele>1470.591</ele>
        <time>2021-01-10T14:02:27Z</time>
      </trkpt>
      <trkpt lat="45.30427" lon="5.75431">
        <ele>1470.151</ele>
        <time>2021-01-10T14:02:32Z</time>
      </trkpt>
      <trkpt lat="45.30426" lon="5.7542">
        <ele>1472.246</ele>
        <time>2021-01-10T14:02:37Z</time>
      </trkpt>
      <trkpt lat="45.30427" lon="5.7541">
        <ele>1474.777</ele>
        <time>2021-01-10T14:02:42Z</time>
      </trkpt>
      <trkpt lat="45.30428" lon="5.754">
        <ele>1473.925</ele>
        <time>2021-01-10T14:02:47Z</time>
      </trkpt>
      <trkpt lat="45.30431" lon="5.75391">
        <ele>1474.218</ele>
        <time>2021-01-10T14:02:52Z</time>
      </trkpt>
      <trkpt lat="45.30438" lon="5.75388">
        <ele>1472.527</ele>
        <time>2021-01-10T14:02:57Z</time>
      </trkpt>
      <trkpt lat="45.30446" lon="5.75388">
        <ele>1474.072</ele>
        <time>2021-01-10T14:03:02Z</time>
      </trkpt>
      <trkpt lat="45.30454" lon="5.7539">
        <ele>1477.221</ele>
        <time>2021-01-10T14:03:07Z</time>
      </trkpt>
      <trkpt lat="45.3046" lon="5.75386">
        <ele>1478.623</ele>
        <time>2021-01-10T14:03:12Z</time>
      </trkpt>
      <trkpt lat="45.30468" lon="5.75385">
        <ele>1479.209</ele>
        <time>2021-01-10T14:03:17Z</time>
      </trkpt>
      <trkpt lat="45.30475" lon="5.75383">
        <ele>1481.452</ele>
        <time>2021-01-10T14:03:22Z</time>
      </trkpt>
      <trkpt lat="45.30482" lon="5.75386">
        <ele>1482.334</ele>
        <time>2021-01-10T14:05:24Z</time>
      </trkpt>
      <trkpt lat="45.30489" lon="5.75387">
        <ele>1482.62</ele>
        <time>2021-01-10T14:05:29Z</time>
      </trkpt>
      <trkpt lat="45.30496" lon="5.75387">
        <ele>1482.945</ele>
        <time>2021-01-10T14:05:34Z</time>
      </trkpt>
      <trkpt lat="45.30503" lon="5.75383">
        <ele>1483.856</ele>
        <time>2021-01-10T14:05:39Z</time>
      </trkpt>
      <trkpt lat="45.30507" lon="5.75376">
        <ele>1483.629</ele>
        <time>2021-01-10T14:05:44Z</time>
      </trkpt>
      <trkpt lat="45.30507" lon="5.75364">
        <ele>1484.269</ele>
        <time>2021-01-10T14:05:49Z</time>
      </trkpt>
      <trkpt lat="45.30502" lon="5.75357">
        <ele>1484.669</ele>
        <time>2021-01-10T14:05:54Z</time>
      </trkpt>
      <trkpt lat="45.30495" lon="5.75353">
        <ele>1484.806</ele>
        <time>2021-01-10T14:05:59Z</time>
      </trkpt>
      <trkpt lat="45.30488" lon="5.75351">
        <ele>1485.794</ele>
        <time>2021-01-10T14:06:04Z</time>
      </trkpt>
      <trkpt lat="45.30481" lon="5.7535">
        <ele>1487.082</ele>
        <time>2021-01-10T14:06:09Z</time>
      </trkpt>
      <trkpt lat="45.30473" lon="5.75349">
        <ele>1488.395</ele>
        <time>2021-01-10T14:06:14Z</time>
      </trkpt>
      <trkpt lat="45.30465" lon="5.75349">
        <ele>1489.604</ele>
        <time>2021-01-10T14:06:19Z</time>
      </trkpt>
      <trkpt lat="45.30457" lon="5.7535">
        <ele>1490.781</ele>
        <time>2021-01-10T14:06:24Z</time>
      </trkpt>
      <trkpt lat="45.3045" lon="5.7535">
        <ele>1490.57</ele>
        <time>2021-01-10T14:06:29Z</time>
      </trkpt>
      <trkpt lat="45.30443" lon="5.75347">
        <ele>1490.495</ele>
        <time>2021-01-10T14:06:34Z</time>
      </trkpt>
      <trkpt lat="45.30438" lon="5.75341">
        <ele>1490.453</ele>
        <time>2021-01-10T14:06:39Z</time>
      </trkpt>
      <trkpt lat="45.30433" lon="5.75333">
        <ele>1490.701</ele>
        <time>2021-01-10T14:06:44Z</time>
      </trkpt>
      <trkpt lat="45.30428" lon="5.75324">
        <ele>1491.108</ele>
        <time>2021-01-10T14:06:49Z</time>
      </trkpt>
      <trkpt lat="45.30422" lon="5.75317">
        <ele>1492.427</ele>
        <time>2021-01-10T14:06:54Z</time>
      </trkpt>
      <trkpt lat="45.30414" lon="5.75318">
        <ele>1493.694</ele>
        <time>2021-01-10T14:07:00Z</time>
      </trkpt>
      <trkpt lat="45.30409" lon="5.75323">
        <ele>1493.948</ele>
        <time>2021-01-10T14:07:05Z</time>
      </trkpt>
      <trkpt lat="45.30405" lon="5.75331">
        <ele>1495.09</ele>
        <time>2021-01-10T14:07:10Z</time>
      </trkpt>
      <trkpt lat="45.304" lon="5.75338">
        <ele>1496.883</ele>
        <time>2021-01-10T14:07:15Z</time>
      </trkpt>
      <trkpt lat="45.30394" lon="5.75341">
        <ele>1498.415</ele>
        <time>2021-01-10T14:07:20Z</time>
      </trkpt>
      <trkpt lat="45.30387" lon="5.75338">
        <ele>1499.776</ele>
        <time>2021-01-10T14:07:25Z</time>
      </trkpt>
      <trkpt lat="45.30385" lon="5.75329">
        <ele>1499.475</ele>
        <time>2021-01-10T14:07:31Z</time>
      </trkpt>
      <trkpt lat="45.30388" lon="5.7532">
        <ele>1500.021</ele>
        <time>2021-01-10T14:07:37Z</time>
      </trkpt>
      <trkpt lat="45.30393" lon="5.75313">
        <ele>1504.077</ele>
        <time>2021-01-10T14:07:42Z</time>
      </trkpt>
      <trkpt lat="45.30398" lon="5.75303">
        <ele>1505.196</ele>
        <time>2021-01-10T14:07:47Z</time>
      </trkpt>
      <trkpt lat="45.30404" lon="5.75293">
        <ele>1507.378</ele>
        <time>2021-01-10T14:07:52Z</time>
      </trkpt>
      <trkpt lat="45.30413" lon="5.75288">
        <ele>1506.781</ele>
        <time>2021-01-10T14:07:57Z</time>
      </trkpt>
      <trkpt lat="45.30423" lon="5.75287">
        <ele>1505.596</ele>
        <time>2021-01-10T14:08:02Z</time>
      </trkpt>
      <trkpt lat="45.30432" lon="5.75287">
        <ele>1507.256</ele>
        <time>2021-01-10T14:08:07Z</time>
      </trkpt>
      <trkpt lat="45.3044" lon="5.75284">
        <ele>1507.993</ele>
        <time>2021-01-10T14:08:12Z</time>
      </trkpt>
      <trkpt lat="45.3045" lon="5.75282">
        <ele>1507.684</ele>
        <time>2021-01-10T14:08:17Z</time>
      </trkpt>
      <trkpt lat="45.30459" lon="5.75284">
        <ele>1507.868</ele>
        <time>2021-01-10T14:08:22Z</time>
      </trkpt>
      <trkpt lat="45.30468" lon="5.75285">
        <ele>1510.91</ele>
        <time>2021-01-10T14:08:27Z</time>
      </trkpt>
      <trkpt lat="45.30476" lon="5.75285">
        <ele>1513.119</ele>
        <time>2021-01-10T14:08:32Z</time>
      </trkpt>
      <trkpt lat="45.30485" lon="5.75281">
        <ele>1513.263</ele>
        <time>2021-01-10T14:08:37Z</time>
      </trkpt>
      <trkpt lat="45.30496" lon="5.75279">
        <ele>1513.405</ele>
        <time>2021-01-10T14:08:42Z</time>
      </trkpt>
      <trkpt lat="45.30505" lon="5.75275">
        <ele>1512.751</ele>
        <time>2021-01-10T14:08:47Z</time>
      </trkpt>
      <trkpt lat="45.30515" lon="5.75277">
        <ele>1511.452</ele>
        <time>2021-01-10T14:08:52Z</time>
      </trkpt>
      <trkpt lat="45.30524" lon="5.75279">
        <ele>1511.889</ele>
        <time>2021-01-10T14:08:57Z</time>
      </trkpt>
      <trkpt lat="45.30533" lon="5.75285">
        <ele>1515.816</ele>
        <time>2021-01-10T14:09:02Z</time>
      </trkpt>
      <trkpt lat="45.30541" lon="5.75293">
        <ele>1516.202</ele>
        <time>2021-01-10T14:09:07Z</time>
      </trkpt>
      <trkpt lat="45.30549" lon="5.753">
        <ele>1516.165</ele>
        <time>2021-01-10T14:09:12Z</time>
      </trkpt>
      <trkpt lat="45.30556" lon="5.75306">
        <ele>1516.802</ele>
        <time>2021-01-10T14:09:17Z</time>
      </trkpt>
      <trkpt lat="45.30562" lon="5.7531">
        <ele>1516.811</ele>
        <time>2021-01-10T14:09:22Z</time>
      </trkpt>
      <trkpt lat="45.3057" lon="5.75313">
        <ele>1517.55</ele>
        <time>2021-01-10T14:09:28Z</time>
      </trkpt>
      <trkpt lat="45.30576" lon="5.75315">
        <ele>1516.836</ele>
        <time>2021-01-10T14:09:33Z</time>
      </trkpt>
      <trkpt lat="45.30584" lon="5.75317">
        <ele>1516.564</ele>
        <time>2021-01-10T14:09:39Z</time>
      </trkpt>
      <trkpt lat="45.30589" lon="5.75321">
        <ele>1520.187</ele>
        <time>2021-01-10T14:09:45Z</time>
      </trkpt>
      <trkpt lat="45.30596" lon="5.75327">
        <ele>1520.575</ele>
        <time>2021-01-10T14:09:51Z</time>
      </trkpt>
      <trkpt lat="45.30603" lon="5.75331">
        <ele>1520.806</ele>
        <time>2021-01-10T14:09:56Z</time>
      </trkpt>
      <trkpt lat="45.30609" lon="5.75336">
        <ele>1520.508</ele>
        <time>2021-01-10T14:10:01Z</time>
      </trkpt>
      <trkpt lat="45.30615" lon="5.75341">
        <ele>1521.457</ele>
        <time>2021-01-10T14:10:07Z</time>
      </trkpt>
      <trkpt lat="45.30621" lon="5.75345">
        <ele>1522.759</ele>
        <time>2021-01-10T14:10:13Z</time>
      </trkpt>
      <trkpt lat="45.30629" lon="5.7535">
        <ele>1523.019</ele>
        <time>2021-01-10T14:10:19Z</time>
      </trkpt>
      <trkpt lat="45.30636" lon="5.75353">
        <ele>1521.194</ele>
        <time>2021-01-10T14:10:24Z</time>
      </trkpt>
      <trkpt lat="45.30643" lon="5.75355">
        <ele>1523.647</ele>
        <time>2021-01-10T14:10:30Z</time>
      </trkpt>
      <trkpt lat="45.3065" lon="5.75356">
        <ele>1523.566</ele>
        <time>2021-01-10T14:10:36Z</time>
      </trkpt>
      <trkpt lat="45.30657" lon="5.75359">
        <ele>1524.289</ele>
        <time>2021-01-10T14:10:42Z</time>
      </trkpt>
      <trkpt lat="45.30663" lon="5.75364">
        <ele>1526.02</ele>
        <time>2021-01-10T14:10:48Z</time>
      </trkpt>
      <trkpt lat="45.3067" lon="5.7537">
        <ele>1527.36</ele>
        <time>2021-01-10T14:10:54Z</time>
      </trkpt>
      <trkpt lat="45.30675" lon="5.75378">
        <ele>1529.074</ele>
        <time>2021-01-10T14:11:00Z</time>
      </trkpt>
      <trkpt lat="45.30681" lon="5.75385">
        <ele>1531.142</ele>
        <time>2021-01-10T14:11:06Z</time>
      </trkpt>
      <trkpt lat="45.30687" lon="5.7539">
        <ele>1531.486</ele>
        <time>2021-01-10T14:11:11Z</time>
      </trkpt>
      <trkpt lat="45.30692" lon="5.75397">
        <ele>1532.272</ele>
        <time>2021-01-10T14:11:17Z</time>
      </trkpt>
      <trkpt lat="45.30697" lon="5.75404">
        <ele>1533.766</ele>
        <time>2021-01-10T14:11:22Z</time>
      </trkpt>
      <trkpt lat="45.30703" lon="5.75411">
        <ele>1534.471</ele>
        <time>2021-01-10T14:11:28Z</time>
      </trkpt>
      <trkpt lat="45.30709" lon="5.75415">
        <ele>1534.669</ele>
        <time>2021-01-10T14:11:34Z</time>
      </trkpt>
      <trkpt lat="45.30715" lon="5.75421">
        <ele>1536.054</ele>
        <time>2021-01-10T14:11:39Z</time>
      </trkpt>
      <trkpt lat="45.30721" lon="5.75425">
        <ele>1535.239</ele>
        <time>2021-01-10T14:11:45Z</time>
      </trkpt>
      <trkpt lat="45.30728" lon="5.75429">
        <ele>1537.201</ele>
        <time>2021-01-10T14:11:50Z</time>
      </trkpt>
      <trkpt lat="45.30733" lon="5.75434">
        <ele>1538.65</ele>
        <time>2021-01-10T14:11:55Z</time>
      </trkpt>
      <trkpt lat="45.3074" lon="5.7544">
        <ele>1539.619</ele>
        <time>2021-01-10T14:12:01Z</time>
      </trkpt>
      <trkpt lat="45.30745" lon="5.75448">
        <ele>1541.118</ele>
        <time>2021-01-10T14:12:06Z</time>
      </trkpt>
      <trkpt lat="45.3075" lon="5.75454">
        <ele>1541.29</ele>
        <time>2021-01-10T14:12:11Z</time>
      </trkpt>
      <trkpt lat="45.30756" lon="5.7546">
        <ele>1542.756</ele>
        <time>2021-01-10T14:12:16Z</time>
      </trkpt>
      <trkpt lat="45.30762" lon="5.75466">
        <ele>1543.917</ele>
        <time>2021-01-10T14:12:22Z</time>
      </trkpt>
      <trkpt lat="45.30767" lon="5.75473">
        <ele>1545.407</ele>
        <time>2021-01-10T14:12:27Z</time>
      </trkpt>
      <trkpt lat="45.30773" lon="5.75478">
        <ele>1546.053</ele>
        <time>2021-01-10T14:12:33Z</time>
      </trkpt>
      <trkpt lat="45.3078" lon="5.75482">
        <ele>1546.106</ele>
        <time>2021-01-10T14:12:38Z</time>
      </trkpt>
      <trkpt lat="45.30786" lon="5.75485">
        <ele>1546.388</ele>
        <time>2021-01-10T14:12:43Z</time>
      </trkpt>
      <trkpt lat="45.30794" lon="5.75487">
        <ele>1546.512</ele>
        <time>2021-01-10T14:12:48Z</time>
      </trkpt>
      <trkpt lat="45.308" lon="5.75489">
        <ele>1545.934</ele>
        <time>2021-01-10T14:12:53Z</time>
      </trkpt>
      <trkpt lat="45.30807" lon="5.7549">
        <ele>1547.002</ele>
        <time>2021-01-10T14:12:58Z</time>
      </trkpt>
      <trkpt lat="45.30814" lon="5.75492">
        <ele>1547.807</ele>
        <time>2021-01-10T14:13:03Z</time>
      </trkpt>
      <trkpt lat="45.30821" lon="5.75495">
        <ele>1548.721</ele>
        <time>2021-01-10T14:13:09Z</time>
      </trkpt>
      <trkpt lat="45.30827" lon="5.755">
        <ele>1549.862</ele>
        <time>2021-01-10T14:13:15Z</time>
      </trkpt>
      <trkpt lat="45.30834" lon="5.75505">
        <ele>1550.829</ele>
        <time>2021-01-10T14:13:21Z</time>
      </trkpt>
      <trkpt lat="45.3084" lon="5.75512">
        <ele>1553.053</ele>
        <time>2021-01-10T14:13:27Z</time>
      </trkpt>
      <trkpt lat="45.30846" lon="5.75517">
        <ele>1554.355</ele>
        <time>2021-01-10T14:13:33Z</time>
      </trkpt>
      <trkpt lat="45.30852" lon="5.7552">
        <ele>1555.589</ele>
        <time>2021-01-10T14:13:39Z</time>
      </trkpt>
      <trkpt lat="45.30858" lon="5.75526">
        <ele>1556.345</ele>
        <time>2021-01-10T14:13:45Z</time>
      </trkpt>
      <trkpt lat="45.30864" lon="5.7553">
        <ele>1557.299</ele>
        <time>2021-01-10T14:13:50Z</time>
      </trkpt>
      <trkpt lat="45.3087" lon="5.75537">
        <ele>1559.36</ele>
        <time>2021-01-10T14:13:56Z</time>
      </trkpt>
      <trkpt lat="45.30876" lon="5.75543">
        <ele>1560.643</ele>
        <time>2021-01-10T14:14:02Z</time>
      </trkpt>
      <trkpt lat="45.30881" lon="5.75549">
        <ele>1561.343</ele>
        <time>2021-01-10T14:14:08Z</time>
      </trkpt>
      <trkpt lat="45.30888" lon="5.75552">
        <ele>1562.661</ele>
        <time>2021-01-10T14:14:14Z</time>
      </trkpt>
      <trkpt lat="45.30893" lon="5.75546">
        <ele>1563.98</ele>
        <time>2021-01-10T14:14:19Z</time>
      </trkpt>
      <trkpt lat="45.3089" lon="5.75538">
        <ele>1563.55</ele>
        <time>2021-01-10T14:14:26Z</time>
      </trkpt>
      <trkpt lat="45.30883" lon="5.75532">
        <ele>1563.804</ele>
        <time>2021-01-10T14:14:33Z</time>
      </trkpt>
      <trkpt lat="45.30879" lon="5.75525">
        <ele>1563.771</ele>
        <time>2021-01-10T14:14:38Z</time>
      </trkpt>
      <trkpt lat="45.30873" lon="5.75517">
        <ele>1564.001</ele>
        <time>2021-01-10T14:14:43Z</time>
      </trkpt>
      <trkpt lat="45.30869" lon="5.75509">
        <ele>1564.473</ele>
        <time>2021-01-10T14:14:48Z</time>
      </trkpt>
      <trkpt lat="45.30865" lon="5.755">
        <ele>1564.205</ele>
        <time>2021-01-10T14:14:54Z</time>
      </trkpt>
      <trkpt lat="45.30862" lon="5.75491">
        <ele>1564.984</ele>
        <time>2021-01-10T14:15:01Z</time>
      </trkpt>
      <trkpt lat="45.3086" lon="5.75482">
        <ele>1566.57</ele>
        <time>2021-01-10T14:15:07Z</time>
      </trkpt>
      <trkpt lat="45.30858" lon="5.75472">
        <ele>1566.045</ele>
        <time>2021-01-10T14:15:13Z</time>
      </trkpt>
      <trkpt lat="45.30856" lon="5.75462">
        <ele>1567.392</ele>
        <time>2021-01-10T14:15:19Z</time>
      </trkpt>
      <trkpt lat="45.30854" lon="5.75451">
        <ele>1567.84</ele>
        <time>2021-01-10T14:15:25Z</time>
      </trkpt>
      <trkpt lat="45.30851" lon="5.75441">
        <ele>1568.939</ele>
        <time>2021-01-10T14:15:31Z</time>
      </trkpt>
      <trkpt lat="45.30848" lon="5.75431">
        <ele>1569.264</ele>
        <time>2021-01-10T14:15:37Z</time>
      </trkpt>
      <trkpt lat="45.30845" lon="5.75422">
        <ele>1569.923</ele>
        <time>2021-01-10T14:15:43Z</time>
      </trkpt>
      <trkpt lat="45.3084" lon="5.75415">
        <ele>1572.401</ele>
        <time>2021-01-10T14:15:49Z</time>
      </trkpt>
      <trkpt lat="45.30835" lon="5.75407">
        <ele>1572.725</ele>
        <time>2021-01-10T14:15:55Z</time>
      </trkpt>
      <trkpt lat="45.3083" lon="5.754">
        <ele>1573.547</ele>
        <time>2021-01-10T14:16:00Z</time>
      </trkpt>
      <trkpt lat="45.30827" lon="5.75392">
        <ele>1574.445</ele>
        <time>2021-01-10T14:16:05Z</time>
      </trkpt>
      <trkpt lat="45.30823" lon="5.75382">
        <ele>1575.196</ele>
        <time>2021-01-10T14:16:11Z</time>
      </trkpt>
      <trkpt lat="45.30821" lon="5.75372">
        <ele>1575.287</ele>
        <time>2021-01-10T14:16:17Z</time>
      </trkpt>
      <trkpt lat="45.30817" lon="5.75363">
        <ele>1577.475</ele>
        <time>2021-01-10T14:16:24Z</time>
      </trkpt>
      <trkpt lat="45.30813" lon="5.75355">
        <ele>1577.97</ele>
        <time>2021-01-10T14:16:29Z</time>
      </trkpt>
      <trkpt lat="45.3081" lon="5.75347">
        <ele>1579.363</ele>
        <time>2021-01-10T14:16:34Z</time>
      </trkpt>
      <trkpt lat="45.30805" lon="5.75339">
        <ele>1579.888</ele>
        <time>2021-01-10T14:16:40Z</time>
      </trkpt>
      <trkpt lat="45.30802" lon="5.7533">
        <ele>1580.711</ele>
        <time>2021-01-10T14:16:47Z</time>
      </trkpt>
      <trkpt lat="45.30796" lon="5.75323">
        <ele>1582.291</ele>
        <time>2021-01-10T14:16:53Z</time>
      </trkpt>
      <trkpt lat="45.30791" lon="5.75315">
        <ele>1583.455</ele>
        <time>2021-01-10T14:16:59Z</time>
      </trkpt>
      <trkpt lat="45.30786" lon="5.75307">
        <ele>1584.312</ele>
        <time>2021-01-10T14:17:04Z</time>
      </trkpt>
      <trkpt lat="45.30781" lon="5.75301">
        <ele>1584.769</ele>
        <time>2021-01-10T14:17:09Z</time>
      </trkpt>
      <trkpt lat="45.30775" lon="5.75295">
        <ele>1584.723</ele>
        <time>2021-01-10T14:17:14Z</time>
      </trkpt>
      <trkpt lat="45.3077" lon="5.75288">
        <ele>1586.711</ele>
        <time>2021-01-10T14:17:21Z</time>
      </trkpt>
      <trkpt lat="45.30765" lon="5.75282">
        <ele>1591.057</ele>
        <time>2021-01-10T14:17:28Z</time>
      </trkpt>
      <trkpt lat="45.30763" lon="5.75273">
        <ele>1592.767</ele>
        <time>2021-01-10T14:17:35Z</time>
      </trkpt>
      <trkpt lat="45.30759" lon="5.75265">
        <ele>1592.926</ele>
        <time>2021-01-10T14:17:42Z</time>
      </trkpt>
      <trkpt lat="45.30754" lon="5.75259">
        <ele>1592.598</ele>
        <time>2021-01-10T14:17:48Z</time>
      </trkpt>
      <trkpt lat="45.30752" lon="5.75249">
        <ele>1592.631</ele>
        <time>2021-01-10T14:17:54Z</time>
      </trkpt>
      <trkpt lat="45.30748" lon="5.75241">
        <ele>1594.239</ele>
        <time>2021-01-10T14:18:00Z</time>
      </trkpt>
      <trkpt lat="45.30743" lon="5.75233">
        <ele>1594.468</ele>
        <time>2021-01-10T14:18:06Z</time>
      </trkpt>
      <trkpt lat="45.30742" lon="5.75222">
        <ele>1593.003</ele>
        <time>2021-01-10T14:18:12Z</time>
      </trkpt>
      <trkpt lat="45.30744" lon="5.75211">
        <ele>1592.67</ele>
        <time>2021-01-10T14:18:18Z</time>
      </trkpt>
      <trkpt lat="45.30749" lon="5.75204">
        <ele>1592.818</ele>
        <time>2021-01-10T14:18:24Z</time>
      </trkpt>
      <trkpt lat="45.30742" lon="5.75201">
        <ele>1591.797</ele>
        <time>2021-01-10T14:18:46Z</time>
      </trkpt>
      <trkpt lat="45.30735" lon="5.75201">
        <ele>1594.915</ele>
        <time>2021-01-10T14:18:52Z</time>
      </trkpt>
      <trkpt lat="45.30728" lon="5.752">
        <ele>1598.389</ele>
        <time>2021-01-10T14:18:59Z</time>
      </trkpt>
      <trkpt lat="45.30723" lon="5.75193">
        <ele>1598.286</ele>
        <time>2021-01-10T14:19:58Z</time>
      </trkpt>
      <trkpt lat="45.30726" lon="5.75184">
        <ele>1588.454</ele>
        <time>2021-01-10T14:20:08Z</time>
      </trkpt>
      <trkpt lat="45.30735" lon="5.75201">
        <ele>1596.6</ele>
        <time>2021-01-10T14:20:13Z</time>
      </trkpt>
      <trkpt lat="45.30741" lon="5.75207">
        <ele>1596.994</ele>
        <time>2021-01-10T14:20:20Z</time>
      </trkpt>
      <trkpt lat="45.30747" lon="5.75209">
        <ele>1598.959</ele>
        <time>2021-01-10T14:20:27Z</time>
      </trkpt>
      <trkpt lat="45.30754" lon="5.75208">
        <ele>1601.615</ele>
        <time>2021-01-10T14:21:02Z</time>
      </trkpt>
      <trkpt lat="45.3076" lon="5.75215">
        <ele>1601.609</ele>
        <time>2021-01-10T14:21:07Z</time>
      </trkpt>
      <trkpt lat="45.30763" lon="5.75225">
        <ele>1602.398</ele>
        <time>2021-01-10T14:21:13Z</time>
      </trkpt>
      <trkpt lat="45.30765" lon="5.75235">
        <ele>1603.883</ele>
        <time>2021-01-10T14:21:18Z</time>
      </trkpt>
      <trkpt lat="45.3077" lon="5.75243">
        <ele>1605.368</ele>
        <time>2021-01-10T14:21:24Z</time>
      </trkpt>
      <trkpt lat="45.30775" lon="5.75251">
        <ele>1605.832</ele>
        <time>2021-01-10T14:21:30Z</time>
      </trkpt>
      <trkpt lat="45.3078" lon="5.75258">
        <ele>1607.368</ele>
        <time>2021-01-10T14:21:36Z</time>
      </trkpt>
      <trkpt lat="45.30785" lon="5.75265">
        <ele>1608.098</ele>
        <time>2021-01-10T14:21:42Z</time>
      </trkpt>
      <trkpt lat="45.30792" lon="5.75272">
        <ele>1609.071</ele>
        <time>2021-01-10T14:21:48Z</time>
      </trkpt>
      <trkpt lat="45.30797" lon="5.75277">
        <ele>1610.461</ele>
        <time>2021-01-10T14:21:53Z</time>
      </trkpt>
      <trkpt lat="45.30803" lon="5.75283">
        <ele>1611.336</ele>
        <time>2021-01-10T14:21:58Z</time>
      </trkpt>
      <trkpt lat="45.30808" lon="5.75288">
        <ele>1611.758</ele>
        <time>2021-01-10T14:22:03Z</time>
      </trkpt>
      <trkpt lat="45.30814" lon="5.75292">
        <ele>1612.525</ele>
        <time>2021-01-10T14:22:08Z</time>
      </trkpt>
      <trkpt lat="45.3082" lon="5.75297">
        <ele>1613.134</ele>
        <time>2021-01-10T14:22:13Z</time>
      </trkpt>
      <trkpt lat="45.30827" lon="5.75302">
        <ele>1613.369</ele>
        <time>2021-01-10T14:22:18Z</time>
      </trkpt>
      <trkpt lat="45.30833" lon="5.75308">
        <ele>1614.205</ele>
        <time>2021-01-10T14:22:23Z</time>
      </trkpt>
      <trkpt lat="45.30839" lon="5.75315">
        <ele>1614.629</ele>
        <time>2021-01-10T14:22:28Z</time>
      </trkpt>
      <trkpt lat="45.30845" lon="5.75321">
        <ele>1615.771</ele>
        <time>2021-01-10T14:22:33Z</time>
      </trkpt>
      <trkpt lat="45.30851" lon="5.75326">
        <ele>1615.266</ele>
        <time>2021-01-10T14:22:38Z</time>
      </trkpt>
      <trkpt lat="45.30859" lon="5.75328">
        <ele>1615.113</ele>
        <time>2021-01-10T14:22:43Z</time>
      </trkpt>
      <trkpt lat="45.30867" lon="5.75329">
        <ele>1616.187</ele>
        <time>2021-01-10T14:22:48Z</time>
      </trkpt>
      <trkpt lat="45.30875" lon="5.7533">
        <ele>1617.619</ele>
        <time>2021-01-10T14:22:53Z</time>
      </trkpt>
      <trkpt lat="45.30882" lon="5.75332">
        <ele>1618.338</ele>
        <time>2021-01-10T14:22:58Z</time>
      </trkpt>
      <trkpt lat="45.3089" lon="5.75335">
        <ele>1618.681</ele>
        <time>2021-01-10T14:23:03Z</time>
      </trkpt>
      <trkpt lat="45.30897" lon="5.75341">
        <ele>1620.493</ele>
        <time>2021-01-10T14:23:08Z</time>
      </trkpt>
      <trkpt lat="45.30905" lon="5.75347">
        <ele>1620.195</ele>
        <time>2021-01-10T14:23:13Z</time>
      </trkpt>
      <trkpt lat="45.3091" lon="5.75353">
        <ele>1621.264</ele>
        <time>2021-01-10T14:23:19Z</time>
      </trkpt>
      <trkpt lat="45.30916" lon="5.75358">
        <ele>1621.837</ele>
        <time>2021-01-10T14:23:25Z</time>
      </trkpt>
      <trkpt lat="45.3092" lon="5.75365">
        <ele>1622.81</ele>
        <time>2021-01-10T14:23:31Z</time>
      </trkpt>
      <trkpt lat="45.30926" lon="5.7537">
        <ele>1624.539</ele>
        <time>2021-01-10T14:23:36Z</time>
      </trkpt>
      <trkpt lat="45.30932" lon="5.75376">
        <ele>1625.199</ele>
        <time>2021-01-10T14:23:41Z</time>
      </trkpt>
      <trkpt lat="45.30938" lon="5.75382">
        <ele>1626.517</ele>
        <time>2021-01-10T14:23:47Z</time>
      </trkpt>
      <trkpt lat="45.30943" lon="5.75388">
        <ele>1628.024</ele>
        <time>2021-01-10T14:23:52Z</time>
      </trkpt>
      <trkpt lat="45.30949" lon="5.75394">
        <ele>1628.479</ele>
        <time>2021-01-10T14:23:58Z</time>
      </trkpt>
      <trkpt lat="45.30955" lon="5.75399">
        <ele>1627.902</ele>
        <time>2021-01-10T14:24:04Z</time>
      </trkpt>
      <trkpt lat="45.30961" lon="5.75403">
        <ele>1628.193</ele>
        <time>2021-01-10T14:24:10Z</time>
      </trkpt>
      <trkpt lat="45.30968" lon="5.75407">
        <ele>1628.668</ele>
        <time>2021-01-10T14:24:17Z</time>
      </trkpt>
      <trkpt lat="45.30974" lon="5.7541">
        <ele>1629.4</ele>
        <time>2021-01-10T14:24:23Z</time>
      </trkpt>
      <trkpt lat="45.30981" lon="5.7541">
        <ele>1628.681</ele>
        <time>2021-01-10T14:24:29Z</time>
      </trkpt>
      <trkpt lat="45.30988" lon="5.7541">
        <ele>1630.272</ele>
        <time>2021-01-10T14:24:36Z</time>
      </trkpt>
      <trkpt lat="45.30996" lon="5.7541">
        <ele>1631.316</ele>
        <time>2021-01-10T14:24:43Z</time>
      </trkpt>
      <trkpt lat="45.31002" lon="5.75409">
        <ele>1631.832</ele>
        <time>2021-01-10T14:24:50Z</time>
      </trkpt>
      <trkpt lat="45.31009" lon="5.7541">
        <ele>1633.407</ele>
        <time>2021-01-10T14:24:56Z</time>
      </trkpt>
      <trkpt lat="45.31016" lon="5.7541">
        <ele>1635.596</ele>
        <time>2021-01-10T14:25:03Z</time>
      </trkpt>
      <trkpt lat="45.31023" lon="5.75412">
        <ele>1636.251</ele>
        <time>2021-01-10T14:25:08Z</time>
      </trkpt>
      <trkpt lat="45.3103" lon="5.75413">
        <ele>1636.585</ele>
        <time>2021-01-10T14:25:13Z</time>
      </trkpt>
      <trkpt lat="45.31037" lon="5.75414">
        <ele>1637.056</ele>
        <time>2021-01-10T14:25:19Z</time>
      </trkpt>
      <trkpt lat="45.31044" lon="5.75416">
        <ele>1637.861</ele>
        <time>2021-01-10T14:25:24Z</time>
      </trkpt>
      <trkpt lat="45.31051" lon="5.7542">
        <ele>1639.384</ele>
        <time>2021-01-10T14:25:30Z</time>
      </trkpt>
      <trkpt lat="45.31058" lon="5.75424">
        <ele>1641.048</ele>
        <time>2021-01-10T14:25:36Z</time>
      </trkpt>
      <trkpt lat="45.31064" lon="5.75429">
        <ele>1642.048</ele>
        <time>2021-01-10T14:25:42Z</time>
      </trkpt>
      <trkpt lat="45.31071" lon="5.75433">
        <ele>1642.252</ele>
        <time>2021-01-10T14:25:48Z</time>
      </trkpt>
      <trkpt lat="45.31077" lon="5.75436">
        <ele>1643.057</ele>
        <time>2021-01-10T14:25:53Z</time>
      </trkpt>
      <trkpt lat="45.31085" lon="5.75442">
        <ele>1644.368</ele>
        <time>2021-01-10T14:25:58Z</time>
      </trkpt>
      <trkpt lat="45.31094" lon="5.75447">
        <ele>1644.659</ele>
        <time>2021-01-10T14:26:03Z</time>
      </trkpt>
      <trkpt lat="45.31101" lon="5.75451">
        <ele>1645.8</ele>
        <time>2021-01-10T14:26:08Z</time>
      </trkpt>
      <trkpt lat="45.31108" lon="5.75457">
        <ele>1646.88</ele>
        <time>2021-01-10T14:26:13Z</time>
      </trkpt>
      <trkpt lat="45.31115" lon="5.75462">
        <ele>1647.254</ele>
        <time>2021-01-10T14:26:18Z</time>
      </trkpt>
      <trkpt lat="45.31123" lon="5.75467">
        <ele>1647.269</ele>
        <time>2021-01-10T14:26:23Z</time>
      </trkpt>
      <trkpt lat="45.31132" lon="5.75469">
        <ele>1647.852</ele>
        <time>2021-01-10T14:26:28Z</time>
      </trkpt>
      <trkpt lat="45.31139" lon="5.7547">
        <ele>1649.328</ele>
        <time>2021-01-10T14:26:34Z</time>
      </trkpt>
      <trkpt lat="45.31146" lon="5.75472">
        <ele>1648.732</ele>
        <time>2021-01-10T14:26:39Z</time>
      </trkpt>
      <trkpt lat="45.31154" lon="5.75473">
        <ele>1646.272</ele>
        <time>2021-01-10T14:26:44Z</time>
      </trkpt>
      <trkpt lat="45.31165" lon="5.75475">
        <ele>1640.558</ele>
        <time>2021-01-10T14:26:49Z</time>
      </trkpt>
      <trkpt lat="45.31176" lon="5.75476">
        <ele>1636.205</ele>
        <time>2021-01-10T14:26:54Z</time>
      </trkpt>
      <trkpt lat="45.31195" lon="5.75466">
        <ele>1634.207</ele>
        <time>2021-01-10T14:26:59Z</time>
      </trkpt>
      <trkpt lat="45.31211" lon="5.75451">
        <ele>1632.816</ele>
        <time>2021-01-10T14:27:04Z</time>
      </trkpt>
      <trkpt lat="45.31228" lon="5.75435">
        <ele>1634.365</ele>
        <time>2021-01-10T14:27:09Z</time>
      </trkpt>
      <trkpt lat="45.31244" lon="5.75426">
        <ele>1635.343</ele>
        <time>2021-01-10T14:27:14Z</time>
      </trkpt>
      <trkpt lat="45.31258" lon="5.75419">
        <ele>1635.41</ele>
        <time>2021-01-10T14:27:19Z</time>
      </trkpt>
      <trkpt lat="45.31274" lon="5.75414">
        <ele>1634.919</ele>
        <time>2021-01-10T14:27:24Z</time>
      </trkpt>
      <trkpt lat="45.3129" lon="5.75407">
        <ele>1634.807</ele>
        <time>2021-01-10T14:27:29Z</time>
      </trkpt>
      <trkpt lat="45.31308" lon="5.75395">
        <ele>1634.924</ele>
        <time>2021-01-10T14:27:34Z</time>
      </trkpt>
      <trkpt lat="45.31326" lon="5.75383">
        <ele>1636.51</ele>
        <time>2021-01-10T14:27:39Z</time>
      </trkpt>
      <trkpt lat="45.31345" lon="5.75378">
        <ele>1638.282</ele>
        <time>2021-01-10T14:27:44Z</time>
      </trkpt>
      <trkpt lat="45.31362" lon="5.75377">
        <ele>1640.45</ele>
        <time>2021-01-10T14:27:49Z</time>
      </trkpt>
      <trkpt lat="45.31377" lon="5.75378">
        <ele>1643.131</ele>
        <time>2021-01-10T14:27:54Z</time>
      </trkpt>
      <trkpt lat="45.31394" lon="5.7538">
        <ele>1645.325</ele>
        <time>2021-01-10T14:27:59Z</time>
      </trkpt>
      <trkpt lat="45.3141" lon="5.75382">
        <ele>1646.897</ele>
        <time>2021-01-10T14:28:04Z</time>
      </trkpt>
      <trkpt lat="45.31425" lon="5.75383">
        <ele>1647.881</ele>
        <time>2021-01-10T14:28:09Z</time>
      </trkpt>
      <trkpt lat="45.3144" lon="5.75386">
        <ele>1647.164</ele>
        <time>2021-01-10T14:28:14Z</time>
      </trkpt>
      <trkpt lat="45.31453" lon="5.7539">
        <ele>1647.538</ele>
        <time>2021-01-10T14:28:19Z</time>
      </trkpt>
      <trkpt lat="45.31465" lon="5.7539">
        <ele>1647.35</ele>
        <time>2021-01-10T14:28:24Z</time>
      </trkpt>
      <trkpt lat="45.31476" lon="5.75389">
        <ele>1647.93</ele>
        <time>2021-01-10T14:28:29Z</time>
      </trkpt>
      <trkpt lat="45.31487" lon="5.7539">
        <ele>1648.837</ele>
        <time>2021-01-10T14:28:34Z</time>
      </trkpt>
      <trkpt lat="45.31497" lon="5.75393">
        <ele>1649.187</ele>
        <time>2021-01-10T14:28:39Z</time>
      </trkpt>
      <trkpt lat="45.31506" lon="5.75398">
        <ele>1649.865</ele>
        <time>2021-01-10T14:28:44Z</time>
      </trkpt>
      <trkpt lat="45.31515" lon="5.75405">
        <ele>1650.684</ele>
        <time>2021-01-10T14:28:49Z</time>
      </trkpt>
      <trkpt lat="45.31525" lon="5.75413">
        <ele>1651.53</ele>
        <time>2021-01-10T14:28:54Z</time>
      </trkpt>
      <trkpt lat="45.31533" lon="5.75419">
        <ele>1651.847</ele>
        <time>2021-01-10T14:28:59Z</time>
      </trkpt>
      <trkpt lat="45.3154" lon="5.75425">
        <ele>1652.411</ele>
        <time>2021-01-10T14:29:04Z</time>
      </trkpt>
      <trkpt lat="45.31548" lon="5.75429">
        <ele>1652.543</ele>
        <time>2021-01-10T14:29:09Z</time>
      </trkpt>
      <trkpt lat="45.31556" lon="5.75434">
        <ele>1653.039</ele>
        <time>2021-01-10T14:29:14Z</time>
      </trkpt>
      <trkpt lat="45.31564" lon="5.75436">
        <ele>1653.048</ele>
        <time>2021-01-10T14:29:19Z</time>
      </trkpt>
      <trkpt lat="45.31571" lon="5.75437">
        <ele>1652.768</ele>
        <time>2021-01-10T14:29:50Z</time>
      </trkpt>
      <trkpt lat="45.31579" lon="5.75438">
        <ele>1653.968</ele>
        <time>2021-01-10T14:29:56Z</time>
      </trkpt>
      <trkpt lat="45.31586" lon="5.75439">
        <ele>1654.755</ele>
        <time>2021-01-10T14:30:01Z</time>
      </trkpt>
      <trkpt lat="45.31595" lon="5.75441">
        <ele>1655.204</ele>
        <time>2021-01-10T14:30:06Z</time>
      </trkpt>
      <trkpt lat="45.31602" lon="5.75444">
        <ele>1655.972</ele>
        <time>2021-01-10T14:30:11Z</time>
      </trkpt>
      <trkpt lat="45.31611" lon="5.75448">
        <ele>1656.687</ele>
        <time>2021-01-10T14:30:16Z</time>
      </trkpt>
      <trkpt lat="45.31618" lon="5.75455">
        <ele>1657.736</ele>
        <time>2021-01-10T14:30:21Z</time>
      </trkpt>
      <trkpt lat="45.31625" lon="5.75463">
        <ele>1657.994</ele>
        <time>2021-01-10T14:30:26Z</time>
      </trkpt>
      <trkpt lat="45.31633" lon="5.75471">
        <ele>1658.272</ele>
        <time>2021-01-10T14:30:31Z</time>
      </trkpt>
      <trkpt lat="45.31638" lon="5.75477">
        <ele>1658.045</ele>
        <time>2021-01-10T14:30:36Z</time>
      </trkpt>
      <trkpt lat="45.31645" lon="5.75486">
        <ele>1658.114</ele>
        <time>2021-01-10T14:30:41Z</time>
      </trkpt>
      <trkpt lat="45.31651" lon="5.75494">
        <ele>1659.164</ele>
        <time>2021-01-10T14:30:46Z</time>
      </trkpt>
      <trkpt lat="45.31658" lon="5.75502">
        <ele>1660.385</ele>
        <time>2021-01-10T14:30:51Z</time>
      </trkpt>
      <trkpt lat="45.31665" lon="5.7551">
        <ele>1661.352</ele>
        <time>2021-01-10T14:30:56Z</time>
      </trkpt>
      <trkpt lat="45.3167" lon="5.75516">
        <ele>1661.749</ele>
        <time>2021-01-10T14:31:01Z</time>
      </trkpt>
      <trkpt lat="45.31676" lon="5.75521">
        <ele>1660.631</ele>
        <time>2021-01-10T14:31:06Z</time>
      </trkpt>
      <trkpt lat="45.31684" lon="5.75529">
        <ele>1661.531</ele>
        <time>2021-01-10T14:31:11Z</time>
      </trkpt>
      <trkpt lat="45.31693" lon="5.75536">
        <ele>1662.371</ele>
        <time>2021-01-10T14:31:16Z</time>
      </trkpt>
      <trkpt lat="45.31703" lon="5.7554">
        <ele>1663.45</ele>
        <time>2021-01-10T14:31:21Z</time>
      </trkpt>
      <trkpt lat="45.31713" lon="5.75544">
        <ele>1664.438</ele>
        <time>2021-01-10T14:31:26Z</time>
      </trkpt>
      <trkpt lat="45.31721" lon="5.75548">
        <ele>1664.407</ele>
        <time>2021-01-10T14:31:31Z</time>
      </trkpt>
      <trkpt lat="45.3173" lon="5.75554">
        <ele>1664.327</ele>
        <time>2021-01-10T14:31:36Z</time>
      </trkpt>
      <trkpt lat="45.31736" lon="5.75564">
        <ele>1664.204</ele>
        <time>2021-01-10T14:31:41Z</time>
      </trkpt>
      <trkpt lat="45.31742" lon="5.75573">
        <ele>1665.324</ele>
        <time>2021-01-10T14:31:46Z</time>
      </trkpt>
      <trkpt lat="45.31749" lon="5.75582">
        <ele>1665.986</ele>
        <time>2021-01-10T14:31:51Z</time>
      </trkpt>
      <trkpt lat="45.31755" lon="5.75588">
        <ele>1666.995</ele>
        <time>2021-01-10T14:31:56Z</time>
      </trkpt>
      <trkpt lat="45.31762" lon="5.75591">
        <ele>1668.028</ele>
        <time>2021-01-10T14:32:01Z</time>
      </trkpt>
      <trkpt lat="45.31772" lon="5.75589">
        <ele>1668.327</ele>
        <time>2021-01-10T14:32:06Z</time>
      </trkpt>
      <trkpt lat="45.31782" lon="5.75584">
        <ele>1669.031</ele>
        <time>2021-01-10T14:32:11Z</time>
      </trkpt>
      <trkpt lat="45.31789" lon="5.75578">
        <ele>1669.777</ele>
        <time>2021-01-10T14:32:16Z</time>
      </trkpt>
      <trkpt lat="45.31796" lon="5.75573">
        <ele>1669.909</ele>
        <time>2021-01-10T14:32:21Z</time>
      </trkpt>
      <trkpt lat="45.31802" lon="5.75569">
        <ele>1669.84</ele>
        <time>2021-01-10T14:32:26Z</time>
      </trkpt>
      <trkpt lat="45.31811" lon="5.75568">
        <ele>1670.58</ele>
        <time>2021-01-10T14:32:31Z</time>
      </trkpt>
      <trkpt lat="45.31819" lon="5.75567">
        <ele>1672.208</ele>
        <time>2021-01-10T14:32:36Z</time>
      </trkpt>
      <trkpt lat="45.31826" lon="5.75571">
        <ele>1672.363</ele>
        <time>2021-01-10T14:32:41Z</time>
      </trkpt>
      <trkpt lat="45.31833" lon="5.75576">
        <ele>1674.004</ele>
        <time>2021-01-10T14:32:46Z</time>
      </trkpt>
      <trkpt lat="45.31841" lon="5.75583">
        <ele>1674.309</ele>
        <time>2021-01-10T14:32:51Z</time>
      </trkpt>
      <trkpt lat="45.31848" lon="5.75591">
        <ele>1674.798</ele>
        <time>2021-01-10T14:32:56Z</time>
      </trkpt>
      <trkpt lat="45.31854" lon="5.75596">
        <ele>1676.087</ele>
        <time>2021-01-10T14:33:01Z</time>
      </trkpt>
      <trkpt lat="45.31861" lon="5.75602">
        <ele>1676.56</ele>
        <time>2021-01-10T14:33:06Z</time>
      </trkpt>
      <trkpt lat="45.31868" lon="5.75611">
        <ele>1676.676</ele>
        <time>2021-01-10T14:33:11Z</time>
      </trkpt>
      <trkpt lat="45.31875" lon="5.75619">
        <ele>1675.918</ele>
        <time>2021-01-10T14:33:16Z</time>
      </trkpt>
      <trkpt lat="45.31882" lon="5.75625">
        <ele>1674.679</ele>
        <time>2021-01-10T14:33:21Z</time>
      </trkpt>
      <trkpt lat="45.31892" lon="5.7563">
        <ele>1673.084</ele>
        <time>2021-01-10T14:33:26Z</time>
      </trkpt>
      <trkpt lat="45.31904" lon="5.75643">
        <ele>1670.853</ele>
        <time>2021-01-10T14:33:31Z</time>
      </trkpt>
      <trkpt lat="45.31909" lon="5.75652">
        <ele>1669.279</ele>
        <time>2021-01-10T14:33:36Z</time>
      </trkpt>
      <trkpt lat="45.31915" lon="5.75655">
        <ele>1669.353</ele>
        <time>2021-01-10T14:33:57Z</time>
      </trkpt>
      <trkpt lat="45.3192" lon="5.75663">
        <ele>1669.153</ele>
        <time>2021-01-10T14:35:54Z</time>
      </trkpt>
      <trkpt lat="45.31913" lon="5.75659">
        <ele>1667.692</ele>
        <time>2021-01-10T14:41:06Z</time>
      </trkpt>
      <trkpt lat="45.31909" lon="5.75651">
        <ele>1667.448</ele>
        <time>2021-01-10T14:41:21Z</time>
      </trkpt>
      <trkpt lat="45.31904" lon="5.75645">
        <ele>1667.792</ele>
        <time>2021-01-10T14:41:27Z</time>
      </trkpt>
      <trkpt lat="45.31898" lon="5.75641">
        <ele>1668.467</ele>
        <time>2021-01-10T14:41:32Z</time>
      </trkpt>
      <trkpt lat="45.31892" lon="5.75633">
        <ele>1668.089</ele>
        <time>2021-01-10T14:41:57Z</time>
      </trkpt>
      <trkpt lat="45.31885" lon="5.75627">
        <ele>1669.213</ele>
        <time>2021-01-10T14:42:02Z</time>
      </trkpt>
      <trkpt lat="45.31879" lon="5.75619">
        <ele>1669.555</ele>
        <time>2021-01-10T14:42:07Z</time>
      </trkpt>
      <trkpt lat="45.31872" lon="5.75614">
        <ele>1670.229</ele>
        <time>2021-01-10T14:42:12Z</time>
      </trkpt>
      <trkpt lat="45.31865" lon="5.75608">
        <ele>1670.528</ele>
        <time>2021-01-10T14:42:17Z</time>
      </trkpt>
      <trkpt lat="45.31857" lon="5.756">
        <ele>1670.929</ele>
        <time>2021-01-10T14:42:22Z</time>
      </trkpt>
      <trkpt lat="45.31848" lon="5.75591">
        <ele>1670.974</ele>
        <time>2021-01-10T14:42:27Z</time>
      </trkpt>
      <trkpt lat="45.31837" lon="5.75582">
        <ele>1670.281</ele>
        <time>2021-01-10T14:42:32Z</time>
      </trkpt>
      <trkpt lat="45.31829" lon="5.75576">
        <ele>1669.135</ele>
        <time>2021-01-10T14:42:37Z</time>
      </trkpt>
      <trkpt lat="45.31822" lon="5.75569">
        <ele>1669.132</ele>
        <time>2021-01-10T14:42:42Z</time>
      </trkpt>
      <trkpt lat="45.31807" lon="5.7557">
        <ele>1667.721</ele>
        <time>2021-01-10T14:42:47Z</time>
      </trkpt>
      <trkpt lat="45.31791" lon="5.75578">
        <ele>1666.755</ele>
        <time>2021-01-10T14:42:52Z</time>
      </trkpt>
      <trkpt lat="45.31771" lon="5.7559">
        <ele>1664.884</ele>
        <time>2021-01-10T14:42:57Z</time>
      </trkpt>
      <trkpt lat="45.31761" lon="5.75595">
        <ele>1664.795</ele>
        <time>2021-01-10T14:43:02Z</time>
      </trkpt>
      <trkpt lat="45.31752" lon="5.7559">
        <ele>1664.257</ele>
        <time>2021-01-10T14:43:07Z</time>
      </trkpt>
      <trkpt lat="45.31743" lon="5.75581">
        <ele>1663.379</ele>
        <time>2021-01-10T14:43:12Z</time>
      </trkpt>
      <trkpt lat="45.31734" lon="5.75569">
        <ele>1662.034</ele>
        <time>2021-01-10T14:43:17Z</time>
      </trkpt>
      <trkpt lat="45.31726" lon="5.75554">
        <ele>1661.405</ele>
        <time>2021-01-10T14:43:22Z</time>
      </trkpt>
      <trkpt lat="45.31707" lon="5.75544">
        <ele>1659.929</ele>
        <time>2021-01-10T14:43:27Z</time>
      </trkpt>
      <trkpt lat="45.31683" lon="5.75531">
        <ele>1658.928</ele>
        <time>2021-01-10T14:43:32Z</time>
      </trkpt>
      <trkpt lat="45.31659" lon="5.75509">
        <ele>1658.448</ele>
        <time>2021-01-10T14:43:37Z</time>
      </trkpt>
      <trkpt lat="45.3164" lon="5.75488">
        <ele>1657.472</ele>
        <time>2021-01-10T14:43:42Z</time>
      </trkpt>
      <trkpt lat="45.31628" lon="5.75472">
        <ele>1656.175</ele>
        <time>2021-01-10T14:43:47Z</time>
      </trkpt>
      <trkpt lat="45.31614" lon="5.75459">
        <ele>1654.45</ele>
        <time>2021-01-10T14:43:52Z</time>
      </trkpt>
      <trkpt lat="45.31597" lon="5.75445">
        <ele>1652.295</ele>
        <time>2021-01-10T14:43:57Z</time>
      </trkpt>
      <trkpt lat="45.31576" lon="5.7544">
        <ele>1651.567</ele>
        <time>2021-01-10T14:44:02Z</time>
      </trkpt>
      <trkpt lat="45.31556" lon="5.75435">
        <ele>1650.316</ele>
        <time>2021-01-10T14:44:07Z</time>
      </trkpt>
      <trkpt lat="45.31539" lon="5.75425">
        <ele>1649.526</ele>
        <time>2021-01-10T14:44:12Z</time>
      </trkpt>
      <trkpt lat="45.31522" lon="5.7541">
        <ele>1647.668</ele>
        <time>2021-01-10T14:44:17Z</time>
      </trkpt>
      <trkpt lat="45.31501" lon="5.75394">
        <ele>1645.513</ele>
        <time>2021-01-10T14:44:22Z</time>
      </trkpt>
      <trkpt lat="45.31477" lon="5.7539">
        <ele>1644.355</ele>
        <time>2021-01-10T14:44:27Z</time>
      </trkpt>
      <trkpt lat="45.3145" lon="5.75389">
        <ele>1643.324</ele>
        <time>2021-01-10T14:44:32Z</time>
      </trkpt>
      <trkpt lat="45.31424" lon="5.75384">
        <ele>1642.286</ele>
        <time>2021-01-10T14:44:37Z</time>
      </trkpt>
      <trkpt lat="45.31399" lon="5.7538">
        <ele>1641.681</ele>
        <time>2021-01-10T14:44:42Z</time>
      </trkpt>
      <trkpt lat="45.31375" lon="5.75377">
        <ele>1640.665</ele>
        <time>2021-01-10T14:44:47Z</time>
      </trkpt>
      <trkpt lat="45.31349" lon="5.75377">
        <ele>1639.46</ele>
        <time>2021-01-10T14:44:52Z</time>
      </trkpt>
      <trkpt lat="45.31325" lon="5.75391">
        <ele>1639.516</ele>
        <time>2021-01-10T14:44:57Z</time>
      </trkpt>
      <trkpt lat="45.31304" lon="5.75404">
        <ele>1640.94</ele>
        <time>2021-01-10T14:45:02Z</time>
      </trkpt>
      <trkpt lat="45.31282" lon="5.75413">
        <ele>1639.961</ele>
        <time>2021-01-10T14:45:07Z</time>
      </trkpt>
      <trkpt lat="45.3126" lon="5.75424">
        <ele>1639.328</ele>
        <time>2021-01-10T14:45:12Z</time>
      </trkpt>
      <trkpt lat="45.3124" lon="5.75441">
        <ele>1639.927</ele>
        <time>2021-01-10T14:45:17Z</time>
      </trkpt>
      <trkpt lat="45.31222" lon="5.75462">
        <ele>1641.164</ele>
        <time>2021-01-10T14:45:22Z</time>
      </trkpt>
      <trkpt lat="45.31207" lon="5.75476">
        <ele>1643.167</ele>
        <time>2021-01-10T14:45:27Z</time>
      </trkpt>
      <trkpt lat="45.31194" lon="5.7548">
        <ele>1642.679</ele>
        <time>2021-01-10T14:45:32Z</time>
      </trkpt>
      <trkpt lat="45.31178" lon="5.75479">
        <ele>1642.119</ele>
        <time>2021-01-10T14:45:37Z</time>
      </trkpt>
      <trkpt lat="45.31163" lon="5.75478">
        <ele>1642.774</ele>
        <time>2021-01-10T14:45:42Z</time>
      </trkpt>
      <trkpt lat="45.31148" lon="5.75478">
        <ele>1642.939</ele>
        <time>2021-01-10T14:45:47Z</time>
      </trkpt>
      <trkpt lat="45.31134" lon="5.75476">
        <ele>1643.136</ele>
        <time>2021-01-10T14:45:52Z</time>
      </trkpt>
      <trkpt lat="45.31127" lon="5.75475">
        <ele>1642.745</ele>
        <time>2021-01-10T14:47:59Z</time>
      </trkpt>
      <trkpt lat="45.31119" lon="5.75468">
        <ele>1642.39</ele>
        <time>2021-01-10T14:48:04Z</time>
      </trkpt>
      <trkpt lat="45.31101" lon="5.75454">
        <ele>1643.578</ele>
        <time>2021-01-10T14:48:09Z</time>
      </trkpt>
      <trkpt lat="45.31081" lon="5.75442">
        <ele>1641.245</ele>
        <time>2021-01-10T14:48:14Z</time>
      </trkpt>
      <trkpt lat="45.31059" lon="5.75424">
        <ele>1638.691</ele>
        <time>2021-01-10T14:48:19Z</time>
      </trkpt>
      <trkpt lat="45.3103" lon="5.75409">
        <ele>1633.292</ele>
        <time>2021-01-10T14:48:24Z</time>
      </trkpt>
      <trkpt lat="45.30995" lon="5.75408">
        <ele>1628.228</ele>
        <time>2021-01-10T14:48:29Z</time>
      </trkpt>
      <trkpt lat="45.30973" lon="5.75409">
        <ele>1624.649</ele>
        <time>2021-01-10T14:48:34Z</time>
      </trkpt>
      <trkpt lat="45.30947" lon="5.75394">
        <ele>1620.888</ele>
        <time>2021-01-10T14:48:39Z</time>
      </trkpt>
      <trkpt lat="45.30921" lon="5.75367">
        <ele>1616.076</ele>
        <time>2021-01-10T14:48:44Z</time>
      </trkpt>
      <trkpt lat="45.30893" lon="5.75338">
        <ele>1613.51</ele>
        <time>2021-01-10T14:48:49Z</time>
      </trkpt>
      <trkpt lat="45.3086" lon="5.75328">
        <ele>1612.04</ele>
        <time>2021-01-10T14:48:54Z</time>
      </trkpt>
      <trkpt lat="45.30831" lon="5.75305">
        <ele>1609.536</ele>
        <time>2021-01-10T14:48:59Z</time>
      </trkpt>
      <trkpt lat="45.30806" lon="5.75285">
        <ele>1606.214</ele>
        <time>2021-01-10T14:49:04Z</time>
      </trkpt>
      <trkpt lat="45.3078" lon="5.75257">
        <ele>1602.713</ele>
        <time>2021-01-10T14:49:09Z</time>
      </trkpt>
      <trkpt lat="45.30759" lon="5.75225">
        <ele>1598.919</ele>
        <time>2021-01-10T14:49:14Z</time>
      </trkpt>
      <trkpt lat="45.30741" lon="5.75225">
        <ele>1595.98</ele>
        <time>2021-01-10T14:49:19Z</time>
      </trkpt>
      <trkpt lat="45.30753" lon="5.75257">
        <ele>1593.785</ele>
        <time>2021-01-10T14:49:24Z</time>
      </trkpt>
      <trkpt lat="45.30767" lon="5.75288">
        <ele>1590.557</ele>
        <time>2021-01-10T14:49:29Z</time>
      </trkpt>
      <trkpt lat="45.30785" lon="5.75313">
        <ele>1587.019</ele>
        <time>2021-01-10T14:49:34Z</time>
      </trkpt>
      <trkpt lat="45.30805" lon="5.75344">
        <ele>1582.691</ele>
        <time>2021-01-10T14:49:39Z</time>
      </trkpt>
      <trkpt lat="45.3082" lon="5.75381">
        <ele>1581.549</ele>
        <time>2021-01-10T14:49:44Z</time>
      </trkpt>
      <trkpt lat="45.30838" lon="5.75416">
        <ele>1577.449</ele>
        <time>2021-01-10T14:49:49Z</time>
      </trkpt>
      <trkpt lat="45.30854" lon="5.7546">
        <ele>1571.548</ele>
        <time>2021-01-10T14:49:54Z</time>
      </trkpt>
      <trkpt lat="45.30868" lon="5.75508">
        <ele>1566.483</ele>
        <time>2021-01-10T14:49:59Z</time>
      </trkpt>
      <trkpt lat="45.30895" lon="5.75545">
        <ele>1564.323</ele>
        <time>2021-01-10T14:50:04Z</time>
      </trkpt>
      <trkpt lat="45.30885" lon="5.75557">
        <ele>1561.479</ele>
        <time>2021-01-10T14:50:09Z</time>
      </trkpt>
      <trkpt lat="45.30861" lon="5.75529">
        <ele>1554.614</ele>
        <time>2021-01-10T14:50:14Z</time>
      </trkpt>
      <trkpt lat="45.30834" lon="5.75509">
        <ele>1549.37</ele>
        <time>2021-01-10T14:50:19Z</time>
      </trkpt>
      <trkpt lat="45.30808" lon="5.75491">
        <ele>1546.29</ele>
        <time>2021-01-10T14:50:24Z</time>
      </trkpt>
      <trkpt lat="45.30777" lon="5.75478">
        <ele>1543.119</ele>
        <time>2021-01-10T14:50:29Z</time>
      </trkpt>
      <trkpt lat="45.30751" lon="5.75456">
        <ele>1538.726</ele>
        <time>2021-01-10T14:50:34Z</time>
      </trkpt>
      <trkpt lat="45.30726" lon="5.75435">
        <ele>1534.712</ele>
        <time>2021-01-10T14:50:39Z</time>
      </trkpt>
      <trkpt lat="45.30702" lon="5.75414">
        <ele>1531.682</ele>
        <time>2021-01-10T14:50:44Z</time>
      </trkpt>
      <trkpt lat="45.30673" lon="5.75382">
        <ele>1528.081</ele>
        <time>2021-01-10T14:50:49Z</time>
      </trkpt>
      <trkpt lat="45.3064" lon="5.75357">
        <ele>1523.43</ele>
        <time>2021-01-10T14:50:54Z</time>
      </trkpt>
      <trkpt lat="45.30606" lon="5.75337">
        <ele>1518.669</ele>
        <time>2021-01-10T14:50:59Z</time>
      </trkpt>
      <trkpt lat="45.30577" lon="5.75321">
        <ele>1514.695</ele>
        <time>2021-01-10T14:51:04Z</time>
      </trkpt>
      <trkpt lat="45.30553" lon="5.75304">
        <ele>1510.071</ele>
        <time>2021-01-10T14:51:09Z</time>
      </trkpt>
      <trkpt lat="45.30518" lon="5.75284">
        <ele>1507.595</ele>
        <time>2021-01-10T14:51:14Z</time>
      </trkpt>
      <trkpt lat="45.30482" lon="5.75289">
        <ele>1504.733</ele>
        <time>2021-01-10T14:51:19Z</time>
      </trkpt>
      <trkpt lat="45.30452" lon="5.75285">
        <ele>1502.701</ele>
        <time>2021-01-10T14:51:24Z</time>
      </trkpt>
      <trkpt lat="45.30448" lon="5.75295">
        <ele>1496.953</ele>
        <time>2021-01-10T14:51:29Z</time>
      </trkpt>
      <trkpt lat="45.30458" lon="5.75312">
        <ele>1492.722</ele>
        <time>2021-01-10T14:51:35Z</time>
      </trkpt>
      <trkpt lat="45.30462" lon="5.75331">
        <ele>1488.496</ele>
        <time>2021-01-10T14:51:40Z</time>
      </trkpt>
      <trkpt lat="45.30473" lon="5.75349">
        <ele>1483.057</ele>
        <time>2021-01-10T14:51:45Z</time>
      </trkpt>
      <trkpt lat="45.30493" lon="5.75353">
        <ele>1481.616</ele>
        <time>2021-01-10T14:51:50Z</time>
      </trkpt>
      <trkpt lat="45.30505" lon="5.75377">
        <ele>1481.786</ele>
        <time>2021-01-10T14:51:55Z</time>
      </trkpt>
      <trkpt lat="45.30483" lon="5.75383">
        <ele>1479.685</ele>
        <time>2021-01-10T14:52:00Z</time>
      </trkpt>
      <trkpt lat="45.30466" lon="5.75389">
        <ele>1477.211</ele>
        <time>2021-01-10T14:52:05Z</time>
      </trkpt>
      <trkpt lat="45.30441" lon="5.7539">
        <ele>1471.847</ele>
        <time>2021-01-10T14:52:10Z</time>
      </trkpt>
      <trkpt lat="45.30426" lon="5.75417">
        <ele>1471.031</ele>
        <time>2021-01-10T14:52:15Z</time>
      </trkpt>
      <trkpt lat="45.30427" lon="5.7546">
        <ele>1468.128</ele>
        <time>2021-01-10T14:52:20Z</time>
      </trkpt>
      <trkpt lat="45.30432" lon="5.75504">
        <ele>1464.394</ele>
        <time>2021-01-10T14:52:25Z</time>
      </trkpt>
      <trkpt lat="45.30434" lon="5.75555">
        <ele>1462.565</ele>
        <time>2021-01-10T14:52:30Z</time>
      </trkpt>
      <trkpt lat="45.30434" lon="5.75606">
        <ele>1457.897</ele>
        <time>2021-01-10T14:52:35Z</time>
      </trkpt>
      <trkpt lat="45.3043" lon="5.7565">
        <ele>1453.382</ele>
        <time>2021-01-10T14:52:40Z</time>
      </trkpt>
      <trkpt lat="45.30413" lon="5.75686">
        <ele>1449.886</ele>
        <time>2021-01-10T14:52:45Z</time>
      </trkpt>
      <trkpt lat="45.30378" lon="5.75685">
        <ele>1446.164</ele>
        <time>2021-01-10T14:52:50Z</time>
      </trkpt>
      <trkpt lat="45.30341" lon="5.75674">
        <ele>1442.632</ele>
        <time>2021-01-10T14:52:55Z</time>
      </trkpt>
      <trkpt lat="45.30311" lon="5.75664">
        <ele>1438.101</ele>
        <time>2021-01-10T14:53:00Z</time>
      </trkpt>
      <trkpt lat="45.30283" lon="5.75654">
        <ele>1434.099</ele>
        <time>2021-01-10T14:53:05Z</time>
      </trkpt>
      <trkpt lat="45.30259" lon="5.75631">
        <ele>1426.439</ele>
        <time>2021-01-10T14:53:10Z</time>
      </trkpt>
      <trkpt lat="45.30234" lon="5.75589">
        <ele>1422.804</ele>
        <time>2021-01-10T14:53:15Z</time>
      </trkpt>
      <trkpt lat="45.30206" lon="5.75552">
        <ele>1419.167</ele>
        <time>2021-01-10T14:53:20Z</time>
      </trkpt>
      <trkpt lat="45.30176" lon="5.75524">
        <ele>1415.215</ele>
        <time>2021-01-10T14:53:25Z</time>
      </trkpt>
      <trkpt lat="45.30142" lon="5.75503">
        <ele>1411.11</ele>
        <time>2021-01-10T14:53:30Z</time>
      </trkpt>
      <trkpt lat="45.30118" lon="5.7548">
        <ele>1407.667</ele>
        <time>2021-01-10T14:53:35Z</time>
      </trkpt>
      <trkpt lat="45.30103" lon="5.75449">
        <ele>1404.588</ele>
        <time>2021-01-10T14:53:40Z</time>
      </trkpt>
      <trkpt lat="45.30078" lon="5.7541">
        <ele>1399.216</ele>
        <time>2021-01-10T14:53:45Z</time>
      </trkpt>
      <trkpt lat="45.3005" lon="5.75368">
        <ele>1394.175</ele>
        <time>2021-01-10T14:53:50Z</time>
      </trkpt>
      <trkpt lat="45.30013" lon="5.75328">
        <ele>1389.089</ele>
        <time>2021-01-10T14:53:55Z</time>
      </trkpt>
      <trkpt lat="45.29987" lon="5.75304">
        <ele>1385.399</ele>
        <time>2021-01-10T14:54:00Z</time>
      </trkpt>
      <trkpt lat="45.29969" lon="5.75265">
        <ele>1381.543</ele>
        <time>2021-01-10T14:54:05Z</time>
      </trkpt>
      <trkpt lat="45.29956" lon="5.75217">
        <ele>1377.784</ele>
        <time>2021-01-10T14:54:10Z</time>
      </trkpt>
      <trkpt lat="45.29928" lon="5.75209">
        <ele>1372.802</ele>
        <time>2021-01-10T14:54:15Z</time>
      </trkpt>
      <trkpt lat="45.29898" lon="5.75234">
        <ele>1371.555</ele>
        <time>2021-01-10T14:54:20Z</time>
      </trkpt>
      <trkpt lat="45.29867" lon="5.75233">
        <ele>1371.391</ele>
        <time>2021-01-10T14:54:25Z</time>
      </trkpt>
      <trkpt lat="45.29837" lon="5.75229">
        <ele>1371.751</ele>
        <time>2021-01-10T14:54:30Z</time>
      </trkpt>
      <trkpt lat="45.29808" lon="5.75241">
        <ele>1369.1</ele>
        <time>2021-01-10T14:54:35Z</time>
      </trkpt>
      <trkpt lat="45.29795" lon="5.75283">
        <ele>1365.901</ele>
        <time>2021-01-10T14:54:40Z</time>
      </trkpt>
      <trkpt lat="45.29795" lon="5.7534">
        <ele>1362.115</ele>
        <time>2021-01-10T14:54:45Z</time>
      </trkpt>
      <trkpt lat="45.298" lon="5.75386">
        <ele>1357.857</ele>
        <time>2021-01-10T14:54:50Z</time>
      </trkpt>
      <trkpt lat="45.29802" lon="5.75428">
        <ele>1354.504</ele>
        <time>2021-01-10T14:54:55Z</time>
      </trkpt>
      <trkpt lat="45.29813" lon="5.75482">
        <ele>1349.095</ele>
        <time>2021-01-10T14:55:00Z</time>
      </trkpt>
      <trkpt lat="45.29812" lon="5.75535">
        <ele>1345.448</ele>
        <time>2021-01-10T14:55:05Z</time>
      </trkpt>
      <trkpt lat="45.2979" lon="5.75568">
        <ele>1341.997</ele>
        <time>2021-01-10T14:55:10Z</time>
      </trkpt>
      <trkpt lat="45.29763" lon="5.75596">
        <ele>1340.469</ele>
        <time>2021-01-10T14:55:15Z</time>
      </trkpt>
      <trkpt lat="45.2975" lon="5.75636">
        <ele>1338.275</ele>
        <time>2021-01-10T14:55:20Z</time>
      </trkpt>
      <trkpt lat="45.29747" lon="5.75681">
        <ele>1334.165</ele>
        <time>2021-01-10T14:55:25Z</time>
      </trkpt>
      <trkpt lat="45.2975" lon="5.75731">
        <ele>1330.745</ele>
        <time>2021-01-10T14:55:30Z</time>
      </trkpt>
      <trkpt lat="45.29753" lon="5.75774">
        <ele>1330.189</ele>
        <time>2021-01-10T14:55:35Z</time>
      </trkpt>
      <trkpt lat="45.2976" lon="5.75818">
        <ele>1326.016</ele>
        <time>2021-01-10T14:55:40Z</time>
      </trkpt>
      <trkpt lat="45.29747" lon="5.75847">
        <ele>1322.302</ele>
        <time>2021-01-10T14:55:45Z</time>
      </trkpt>
      <trkpt lat="45.29728" lon="5.7583">
        <ele>1322.349</ele>
        <time>2021-01-10T14:55:50Z</time>
      </trkpt>
      <trkpt lat="45.297" lon="5.75823">
        <ele>1319.639</ele>
        <time>2021-01-10T14:55:55Z</time>
      </trkpt>
      <trkpt lat="45.29674" lon="5.7585">
        <ele>1317.712</ele>
        <time>2021-01-10T14:56:00Z</time>
      </trkpt>
      <trkpt lat="45.29662" lon="5.75889">
        <ele>1316.752</ele>
        <time>2021-01-10T14:56:05Z</time>
      </trkpt>
      <trkpt lat="45.2966" lon="5.75908">
        <ele>1316.732</ele>
        <time>2021-01-10T14:56:10Z</time>
      </trkpt>
      <trkpt lat="45.29657" lon="5.75917">
        <ele>1316.041</ele>
        <time>2021-01-10T14:56:47Z</time>
      </trkpt>
      <trkpt lat="45.29655" lon="5.75929">
        <ele>1316.979</ele>
        <time>2021-01-10T14:56:52Z</time>
      </trkpt>
      <trkpt lat="45.29653" lon="5.7594">
        <ele>1316.917</ele>
        <time>2021-01-10T14:56:57Z</time>
      </trkpt>
      <trkpt lat="45.29652" lon="5.75955">
        <ele>1316.143</ele>
        <time>2021-01-10T14:57:02Z</time>
      </trkpt>
      <trkpt lat="45.2965" lon="5.75974">
        <ele>1316.434</ele>
        <time>2021-01-10T14:57:07Z</time>
      </trkpt>
      <trkpt lat="45.29648" lon="5.75998">
        <ele>1316.459</ele>
        <time>2021-01-10T14:57:12Z</time>
      </trkpt>
      <trkpt lat="45.29647" lon="5.76021">
        <ele>1318.191</ele>
        <time>2021-01-10T14:57:17Z</time>
      </trkpt>
      <trkpt lat="45.29643" lon="5.76045">
        <ele>1319.072</ele>
        <time>2021-01-10T14:57:22Z</time>
      </trkpt>
      <trkpt lat="45.2964" lon="5.76068">
        <ele>1317.904</ele>
        <time>2021-01-10T14:57:27Z</time>
      </trkpt>
      <trkpt lat="45.29633" lon="5.76092">
        <ele>1317.991</ele>
        <time>2021-01-10T14:57:32Z</time>
      </trkpt>
      <trkpt lat="45.29622" lon="5.76113">
        <ele>1317.09</ele>
        <time>2021-01-10T14:57:37Z</time>
      </trkpt>
      <trkpt lat="45.2961" lon="5.76129">
        <ele>1316.735</ele>
        <time>2021-01-10T14:57:42Z</time>
      </trkpt>
      <trkpt lat="45.29594" lon="5.76139">
        <ele>1316.56</ele>
        <time>2021-01-10T14:57:47Z</time>
      </trkpt>
      <trkpt lat="45.29577" lon="5.76147">
        <ele>1318.091</ele>
        <time>2021-01-10T14:57:52Z</time>
      </trkpt>
      <trkpt lat="45.29558" lon="5.76149">
        <ele>1319.165</ele>
        <time>2021-01-10T14:57:57Z</time>
      </trkpt>
      <trkpt lat="45.29543" lon="5.76149">
        <ele>1320.526</ele>
        <time>2021-01-10T14:58:02Z</time>
      </trkpt>
      <trkpt lat="45.29531" lon="5.76155">
        <ele>1320.909</ele>
        <time>2021-01-10T14:58:07Z</time>
      </trkpt>
      <trkpt lat="45.2952" lon="5.76168">
        <ele>1321.049</ele>
        <time>2021-01-10T14:58:12Z</time>
      </trkpt>
      <trkpt lat="45.29514" lon="5.76186">
        <ele>1320.13</ele>
        <time>2021-01-10T14:58:17Z</time>
      </trkpt>
      <trkpt lat="45.29509" lon="5.76202">
        <ele>1319.278</ele>
        <time>2021-01-10T14:58:22Z</time>
      </trkpt>
      <trkpt lat="45.29508" lon="5.76222">
        <ele>1319.68</ele>
        <time>2021-01-10T14:58:27Z</time>
      </trkpt>
      <trkpt lat="45.29508" lon="5.76239">
        <ele>1320.214</ele>
        <time>2021-01-10T14:58:32Z</time>
      </trkpt>
      <trkpt lat="45.29508" lon="5.76256">
        <ele>1320.136</ele>
        <time>2021-01-10T14:58:37Z</time>
      </trkpt>
      <trkpt lat="45.29504" lon="5.76273">
        <ele>1320.318</ele>
        <time>2021-01-10T14:58:42Z</time>
      </trkpt>
      <trkpt lat="45.29498" lon="5.76288">
        <ele>1320.398</ele>
        <time>2021-01-10T14:58:47Z</time>
      </trkpt>
      <trkpt lat="45.2949" lon="5.76298">
        <ele>1321.215</ele>
        <time>2021-01-10T14:58:52Z</time>
      </trkpt>
      <trkpt lat="45.2948" lon="5.76305">
        <ele>1321.796</ele>
        <time>2021-01-10T14:58:57Z</time>
      </trkpt>
      <trkpt lat="45.2947" lon="5.76311">
        <ele>1322.349</ele>
        <time>2021-01-10T14:59:02Z</time>
      </trkpt>
      <trkpt lat="45.29461" lon="5.76318">
        <ele>1322.587</ele>
        <time>2021-01-10T14:59:07Z</time>
      </trkpt>
      <trkpt lat="45.29452" lon="5.76324">
        <ele>1323.345</ele>
        <time>2021-01-10T14:59:12Z</time>
      </trkpt>
      <trkpt lat="45.29444" lon="5.76329">
        <ele>1324.147</ele>
        <time>2021-01-10T14:59:17Z</time>
      </trkpt>
      <trkpt lat="45.29439" lon="5.76339">
        <ele>1325.212</ele>
        <time>2021-01-10T14:59:22Z</time>
      </trkpt>
      <trkpt lat="45.29435" lon="5.76354">
        <ele>1325.923</ele>
        <time>2021-01-10T14:59:27Z</time>
      </trkpt>
      <trkpt lat="45.29434" lon="5.76367">
        <ele>1326.408</ele>
        <time>2021-01-10T14:59:32Z</time>
      </trkpt>
      <trkpt lat="45.29436" lon="5.76383">
        <ele>1327.071</ele>
        <time>2021-01-10T14:59:37Z</time>
      </trkpt>
      <trkpt lat="45.2944" lon="5.76393">
        <ele>1326.912</ele>
        <time>2021-01-10T14:59:42Z</time>
      </trkpt>
      <trkpt lat="45.29446" lon="5.76403">
        <ele>1326.825</ele>
        <time>2021-01-10T14:59:47Z</time>
      </trkpt>
      <trkpt lat="45.29452" lon="5.76414">
        <ele>1327.061</ele>
        <time>2021-01-10T14:59:52Z</time>
      </trkpt>
      <trkpt lat="45.29457" lon="5.76426">
        <ele>1327.712</ele>
        <time>2021-01-10T14:59:57Z</time>
      </trkpt>
      <trkpt lat="45.29463" lon="5.76438">
        <ele>1329.179</ele>
        <time>2021-01-10T15:00:02Z</time>
      </trkpt>
      <trkpt lat="45.29468" lon="5.76451">
        <ele>1330.027</ele>
        <time>2021-01-10T15:00:07Z</time>
      </trkpt>
      <trkpt lat="45.29469" lon="5.7646">
        <ele>1330.685</ele>
        <time>2021-01-10T15:00:13Z</time>
      </trkpt>
      <trkpt lat="45.2947" lon="5.76469">
        <ele>1331.742</ele>
        <time>2021-01-10T15:00:18Z</time>
      </trkpt>
      <trkpt lat="45.29466" lon="5.76478">
        <ele>1331.845</ele>
        <time>2021-01-10T15:00:23Z</time>
      </trkpt>
      <trkpt lat="45.29461" lon="5.76486">
        <ele>1330.617</ele>
        <time>2021-01-10T15:00:28Z</time>
      </trkpt>
      <trkpt lat="45.29462" lon="5.765">
        <ele>1331.696</ele>
        <time>2021-01-10T15:00:33Z</time>
      </trkpt>
      <trkpt lat="45.29462" lon="5.76513">
        <ele>1331.918</ele>
        <time>2021-01-10T15:00:38Z</time>
      </trkpt>
      <trkpt lat="45.29463" lon="5.76531">
        <ele>1330.605</ele>
        <time>2021-01-10T15:00:43Z</time>
      </trkpt>
      <trkpt lat="45.29462" lon="5.76555">
        <ele>1328.96</ele>
        <time>2021-01-10T15:00:48Z</time>
      </trkpt>
      <trkpt lat="45.29458" lon="5.76589">
        <ele>1325.363</ele>
        <time>2021-01-10T15:00:53Z</time>
      </trkpt>
      <trkpt lat="45.2945" lon="5.76621">
        <ele>1323.281</ele>
        <time>2021-01-10T15:00:58Z</time>
      </trkpt>
      <trkpt lat="45.29437" lon="5.76643">
        <ele>1320.868</ele>
        <time>2021-01-10T15:01:03Z</time>
      </trkpt>
      <trkpt lat="45.29426" lon="5.76655">
        <ele>1321.277</ele>
        <time>2021-01-10T15:01:08Z</time>
      </trkpt>
      <trkpt lat="45.29432" lon="5.76657">
        <ele>1321.775</ele>
        <time>2021-01-10T15:01:39Z</time>
      </trkpt>
      <trkpt lat="45.29426" lon="5.76658">
        <ele>1321.339</ele>
        <time>2021-01-10T15:06:25Z</time>
      </trkpt>
      <trkpt lat="45.29432" lon="5.76655">
        <ele>1321.304</ele>
        <time>2021-01-10T15:06:43Z</time>
      </trkpt>
      <trkpt lat="45.2943" lon="5.76664">
        <ele>1319.764</ele>
        <time>2021-01-10T15:07:40Z</time>
      </trkpt>
      <trkpt lat="45.29426" lon="5.76657">
        <ele>1321.452</ele>
        <time>2021-01-10T15:10:12Z</time>
      </trkpt>
      <trkpt lat="45.29419" lon="5.76659">
        <ele>1321.339</ele>
        <time>2021-01-10T15:10:18Z</time>
      </trkpt>
      <trkpt lat="45.29398" lon="5.76669">
        <ele>1320.984</ele>
        <time>2021-01-10T15:10:23Z</time>
      </trkpt>
      <trkpt lat="45.29379" lon="5.76681">
        <ele>1320.954</ele>
        <time>2021-01-10T15:10:28Z</time>
      </trkpt>
      <trkpt lat="45.29358" lon="5.76691">
        <ele>1320.226</ele>
        <time>2021-01-10T15:10:33Z</time>
      </trkpt>
      <trkpt lat="45.29348" lon="5.767">
        <ele>1318.523</ele>
        <time>2021-01-10T15:10:38Z</time>
      </trkpt>
    </trkseg>
  </trk>
</gpx>